Observation data for Caprock Canyons on 09/12/2017      Previous  Date  Next       Current Mesonet Observations  Soil Data  Daily Summary Page  Observations in Plain Language
KQU1 120500Z 19007KT 20/11 A3012 RMK A01 T01990114  RH  058%=      5-min Rain = 0
KQU1 120501Z 20006KT 20/11 A3012 RMK A01 T01990114  RH  058%=      5-min Rain = 0
KQU1 120502Z 20006KT 20/11 A3012 RMK A01 T02000114  RH  058%=      5-min Rain = 0
KQU1 120503Z 19006KT 20/11 A3012 RMK A01 T02000114  RH  058%=      5-min Rain = 0
KQU1 120504Z 19006KT 20/11 A3012 RMK A01 T01990114  RH  058%=      5-min Rain = 0
KQU1 120505Z 19006KT 20/11 A3012 RMK A01 T01990114  RH  058%=      5-min Rain = 0
KQU1 120506Z 19006KT 20/11 A3012 RMK A01 T01990114  RH  058%=      5-min Rain = 0
KQU1 120507Z 19006KT 20/11 A3012 RMK A01 T01980114  RH  058%=      5-min Rain = 0
KQU1 120508Z 19006KT 20/11 A3012 RMK A01 T01970114  RH  059%=      5-min Rain = 0
KQU1 120509Z 19006KT 20/11 A3012 RMK A01 T01970114  RH  058%=      5-min Rain = 0
KQU1 120510Z 19006KT 20/11 A3012 RMK A01 T01970114  RH  059%=      5-min Rain = 0
KQU1 120511Z 19006KT 20/11 A3012 RMK A01 T01970114  RH  059%=      5-min Rain = 0
KQU1 120512Z 19006KT 20/11 A3012 RMK A01 T01970114  RH  059%=      5-min Rain = 0
KQU1 120513Z 19006KT 20/11 A3012 RMK A01 T01960114  RH  059%=      5-min Rain = 0
KQU1 120514Z 19006KT 20/11 A3012 RMK A01 T01960114  RH  059%=      5-min Rain = 0
KQU1 120515Z 20006KT 20/11 A3012 RMK A01 T01960114  RH  059%=      5-min Rain = 0
KQU1 120516Z 20006KT 20/11 A3012 RMK A01 T01950114  RH  059%=      5-min Rain = 0
KQU1 120517Z 20006KT 19/11 A3012 RMK A01 T01940114  RH  060%=      5-min Rain = 0
KQU1 120518Z 20006KT 19/11 A3012 RMK A01 T01930114  RH  060%=      5-min Rain = 0
KQU1 120519Z 20006KT 19/11 A3012 RMK A01 T01920114  RH  060%=      5-min Rain = 0
KQU1 120520Z 21007KT 19/11 A3012 RMK A01 T01910114  RH  061%=      5-min Rain = 0
KQU1 120521Z 21007KT 19/11 A3012 RMK A01 T01910114  RH  061%=      5-min Rain = 0
KQU1 120522Z 21007KT 19/11 A3012 RMK A01 T01900114  RH  062%=      5-min Rain = 0
KQU1 120523Z 21007KT 19/11 A3012 RMK A01 T01890114  RH  062%=      5-min Rain = 0
KQU1 120524Z 21007KT 19/11 A3012 RMK A01 T01890114  RH  062%=      5-min Rain = 0
KQU1 120525Z 21007KT 19/11 A3012 RMK A01 T01890114  RH  062%=      5-min Rain = 0
KQU1 120526Z 21007KT 19/11 A3012 RMK A01 T01890114  RH  062%=      5-min Rain = 0
KQU1 120527Z 21007KT 19/11 A3012 RMK A01 T01890114  RH  062%=      5-min Rain = 0
KQU1 120528Z 21007KT 19/11 A3012 RMK A01 T01890114  RH  062%=      5-min Rain = 0
KQU1 120529Z 21007KT 19/11 A3012 RMK A01 T01890114  RH  062%=      5-min Rain = 0
KQU1 120530Z 21007KT 19/11 A3012 RMK A01 T01890114  RH  062%=      5-min Rain = 0
KQU1 120531Z 20007KT 19/11 A3012 RMK A01 T01900114  RH  061%=      5-min Rain = 0
KQU1 120532Z 20007KT 19/11 A3011 RMK A01 T01910113  RH  061%=      5-min Rain = 0
KQU1 120533Z 20007KT 19/11 A3011 RMK A01 T01930113  RH  060%=      5-min Rain = 0
KQU1 120534Z 20007KT 19/11 A3011 RMK A01 T01940112  RH  059%=      5-min Rain = 0
KQU1 120535Z 20007KT 20/11 A3011 RMK A01 T01960112  RH  058%=      5-min Rain = 0
KQU1 120536Z 20007KT 20/11 A3011 RMK A01 T01960112  RH  058%=      5-min Rain = 0
KQU1 120537Z 20007KT 20/11 A3011 RMK A01 T01960112  RH  058%=      5-min Rain = 0
KQU1 120538Z 20007KT 20/11 A3011 RMK A01 T01960112  RH  058%=      5-min Rain = 0
KQU1 120539Z 20007KT 20/11 A3011 RMK A01 T01950112  RH  059%=      5-min Rain = 0
KQU1 120540Z 20007KT 19/11 A3011 RMK A01 T01940112  RH  059%=      5-min Rain = 0
KQU1 120541Z 20007KT 19/11 A3011 RMK A01 T01940112  RH  059%=      5-min Rain = 0
KQU1 120542Z 20007KT 19/11 A3011 RMK A01 T01930112  RH  059%=      5-min Rain = 0
KQU1 120543Z 21007KT 19/11 A3011 RMK A01 T01920112  RH  060%=      5-min Rain = 0
KQU1 120544Z 21007KT 19/11 A3011 RMK A01 T01920112  RH  060%=      5-min Rain = 0
KQU1 120545Z 20007KT 19/11 A3011 RMK A01 T01910112  RH  060%=      5-min Rain = 0
KQU1 120546Z 20007KT 19/11 A3011 RMK A01 T01910112  RH  060%=      5-min Rain = 0
KQU1 120547Z 20007KT 19/11 A3011 RMK A01 T01910112  RH  060%=      5-min Rain = 0
KQU1 120548Z 21007KT 19/11 A3011 RMK A01 T01910112  RH  060%=      5-min Rain = 0
KQU1 120549Z 20007KT 19/11 A3011 RMK A01 T01910112  RH  060%=      5-min Rain = 0
KQU1 120550Z 20007KT 19/11 A3011 RMK A01 T01910112  RH  060%=      5-min Rain = 0
KQU1 120551Z 20007KT 19/11 A3011 RMK A01 T01900112  RH  060%=      5-min Rain = 0
KQU1 120552Z 20007KT 19/11 A3011 RMK A01 T01900112  RH  060%=      5-min Rain = 0
KQU1 120553Z 20007KT 19/11 A3011 RMK A01 T01900112  RH  060%=      5-min Rain = 0
KQU1 120554Z 20007KT 19/11 A3011 RMK A01 T01900112  RH  060%=      5-min Rain = 0
KQU1 120555Z 20007KT 19/11 A3011 RMK A01 T01910111  RH  060%=      5-min Rain = 0
KQU1 120556Z 20007KT 19/11 A3011 RMK A01 T01910111  RH  060%=      5-min Rain = 0
KQU1 120557Z 20007KT 19/11 A3011 RMK A01 T01910111  RH  060%=      5-min Rain = 0
KQU1 120558Z 20007KT 19/11 A3011 RMK A01 T01910111  RH  060%=      5-min Rain = 0
KQU1 120559Z 20007KT 19/11 A3011 RMK A01 T01910111  RH  060%=      5-min Rain = 0
KQU1 120600Z 21007KT 19/11 A3011 RMK A01 T01910111  RH  060%=      5-min Rain = 0
KQU1 120601Z 21007KT 19/11 A3011 RMK A01 T01900111  RH  060%=      5-min Rain = 0
KQU1 120602Z 21007KT 19/11 A3011 RMK A01 T01900111  RH  060%=      5-min Rain = 0
KQU1 120603Z 21007KT 19/11 A3011 RMK A01 T01900111  RH  060%=      5-min Rain = 0
KQU1 120604Z 21007KT 19/11 A3011 RMK A01 T01900111  RH  060%=      5-min Rain = 0
KQU1 120605Z 21007KT 19/11 A3011 RMK A01 T01890111  RH  060%=      5-min Rain = 0
KQU1 120606Z 21007KT 19/11 A3011 RMK A01 T01890111  RH  060%=      5-min Rain = 0
KQU1 120607Z 21007KT 19/11 A3011 RMK A01 T01890111  RH  060%=      5-min Rain = 0
KQU1 120608Z 21007KT 19/11 A301 RMK A01 T01890111  RH  060%=      5-min Rain = 0
KQU1 120609Z 21007KT 19/11 A301 RMK A01 T01890111  RH  060%=      5-min Rain = 0
KQU1 120610Z 21007KT 19/11 A301 RMK A01 T01890111  RH  060%=      5-min Rain = 0
KQU1 120611Z 21007KT 19/11 A301 RMK A01 T01880111  RH  061%=      5-min Rain = 0
KQU1 120612Z 21007KT 19/11 A301 RMK A01 T01880111  RH  061%=      5-min Rain = 0
KQU1 120613Z 21007KT 19/11 A301 RMK A01 T01880111  RH  061%=      5-min Rain = 0
KQU1 120614Z 21007KT 19/11 A301 RMK A01 T01880111  RH  061%=      5-min Rain = 0
KQU1 120615Z 21007KT 19/11 A301 RMK A01 T01880111  RH  061%=      5-min Rain = 0
KQU1 120616Z 21007KT 19/11 A301 RMK A01 T01880110  RH  061%=      5-min Rain = 0
KQU1 120617Z 21007KT 19/11 A301 RMK A01 T01880110  RH  060%=      5-min Rain = 0
KQU1 120618Z 21007KT 19/11 A301 RMK A01 T01890110  RH  060%=      5-min Rain = 0
KQU1 120619Z 21007KT 19/11 A301 RMK A01 T01890110  RH  060%=      5-min Rain = 0
KQU1 120620Z 21007KT 19/11 A301 RMK A01 T01890110  RH  060%=      5-min Rain = 0
KQU1 120621Z 21007KT 19/11 A301 RMK A01 T01890110  RH  060%=      5-min Rain = 0
KQU1 120622Z 21007KT 19/11 A301 RMK A01 T01880110  RH  060%=      5-min Rain = 0
KQU1 120623Z 21007KT 19/11 A301 RMK A01 T01880110  RH  061%=      5-min Rain = 0
KQU1 120624Z 21007KT 19/11 A301 RMK A01 T01880110  RH  060%=      5-min Rain = 0
KQU1 120625Z 21007KT 19/11 A301 RMK A01 T01880110  RH  060%=      5-min Rain = 0
KQU1 120626Z 21007KT 19/11 A301 RMK A01 T01890110  RH  060%=      5-min Rain = 0
KQU1 120627Z 21007KT 19/11 A301 RMK A01 T01890110  RH  060%=      5-min Rain = 0
KQU1 120628Z 21007KT 19/11 A301 RMK A01 T01900110  RH  060%=      5-min Rain = 0
KQU1 120629Z 21007KT 19/11 A301 RMK A01 T01900109  RH  059%=      5-min Rain = 0
KQU1 120630Z 21007KT 19/11 A301 RMK A01 T01900109  RH  059%=      5-min Rain = 0
KQU1 120631Z 21007KT 19/11 A301 RMK A01 T01910109  RH  059%=      5-min Rain = 0
KQU1 120632Z 20008KT 19/11 A301 RMK A01 T01920109  RH  059%=      5-min Rain = 0
KQU1 120633Z 21008KT 19/11 A301 RMK A01 T01920109  RH  058%=      5-min Rain = 0
KQU1 120634Z 20008KT 19/11 A301 RMK A01 T01930109  RH  058%=      5-min Rain = 0
KQU1 120635Z 20007KT 19/11 A301 RMK A01 T01930109  RH  058%=      5-min Rain = 0
KQU1 120636Z 20007KT 19/11 A301 RMK A01 T01930109  RH  058%=      5-min Rain = 0
KQU1 120637Z 20007KT 19/11 A301 RMK A01 T01930109  RH  058%=      5-min Rain = 0
KQU1 120638Z 20007KT 19/11 A301 RMK A01 T01930108  RH  058%=      5-min Rain = 0
KQU1 120639Z 20007KT 19/11 A301 RMK A01 T01930108  RH  058%=      5-min Rain = 0
KQU1 120640Z 20007KT 19/11 A301 RMK A01 T01930108  RH  058%=      5-min Rain = 0
KQU1 120641Z 20007KT 19/11 A301 RMK A01 T01930108  RH  058%=      5-min Rain = 0
KQU1 120642Z 21007KT 19/11 A301 RMK A01 T01930109  RH  058%=      5-min Rain = 0
KQU1 120643Z 21007KT 19/11 A301 RMK A01 T01920109  RH  058%=      5-min Rain = 0
KQU1 120644Z 21007KT 19/11 A301 RMK A01 T01920109  RH  059%=      5-min Rain = 0
KQU1 120645Z 21007KT 19/11 A301 RMK A01 T01910109  RH  059%=      5-min Rain = 0
KQU1 120646Z 20007KT 19/11 A301 RMK A01 T01910109  RH  059%=      5-min Rain = 0
KQU1 120647Z 21007KT 19/11 A301 RMK A01 T01900109  RH  059%=      5-min Rain = 0
KQU1 120648Z 20007KT 19/11 A301 RMK A01 T01900109  RH  059%=      5-min Rain = 0
KQU1 120649Z 21007KT 19/11 A301 RMK A01 T01900109  RH  059%=      5-min Rain = 0
KQU1 120650Z 20007KT 19/11 A301 RMK A01 T01900109  RH  059%=      5-min Rain = 0
KQU1 120651Z 21007KT 19/11 A301 RMK A01 T01900109  RH  059%=      5-min Rain = 0
KQU1 120652Z 21007KT 19/11 A301 RMK A01 T01900109  RH  059%=      5-min Rain = 0
KQU1 120653Z 21007KT 19/11 A301 RMK A01 T01890109  RH  059%=      5-min Rain = 0
KQU1 120654Z 21007KT 19/11 A301 RMK A01 T01890109  RH  060%=      5-min Rain = 0
KQU1 120655Z 21007KT 19/11 A301 RMK A01 T01890109  RH  060%=      5-min Rain = 0
KQU1 120656Z 21007KT 19/11 A301 RMK A01 T01880109  RH  060%=      5-min Rain = 0
KQU1 120657Z 21007KT 19/11 A301 RMK A01 T01870109  RH  060%=      5-min Rain = 0
KQU1 120658Z 21007KT 19/11 A301 RMK A01 T01870109  RH  061%=      5-min Rain = 0
KQU1 120659Z 21007KT 19/11 A301 RMK A01 T01860109  RH  061%=      5-min Rain = 0
KQU1 120700Z 21007KT 19/11 A301 RMK A01 T01860110  RH  061%=      5-min Rain = 0
KQU1 120701Z 21007KT 19/11 A301 RMK A01 T01860110  RH  061%=      5-min Rain = 0
KQU1 120702Z 21007KT 19/11 A301 RMK A01 T01850110  RH  061%=      5-min Rain = 0
KQU1 120703Z 21007KT 19/11 A3009 RMK A01 T01850109  RH  061%=      5-min Rain = 0
KQU1 120704Z 21007KT 19/11 A3009 RMK A01 T01850109  RH  061%=      5-min Rain = 0
KQU1 120705Z 21007KT 19/11 A3009 RMK A01 T01850109  RH  061%=      5-min Rain = 0
KQU1 120706Z 21007KT 19/11 A3009 RMK A01 T01850109  RH  061%=      5-min Rain = 0
KQU1 120707Z 21007KT 19/11 A3009 RMK A01 T01850109  RH  061%=      5-min Rain = 0
KQU1 120708Z 21007KT 19/11 A3009 RMK A01 T01850109  RH  061%=      5-min Rain = 0
KQU1 120709Z 21006KT 19/11 A3009 RMK A01 T01850109  RH  061%=      5-min Rain = 0
KQU1 120710Z 21007KT 19/11 A3009 RMK A01 T01850109  RH  061%=      5-min Rain = 0
KQU1 120711Z 21007KT 19/11 A3009 RMK A01 T01850109  RH  061%=      5-min Rain = 0
KQU1 120712Z 21007KT 19/11 A3009 RMK A01 T01850109  RH  061%=      5-min Rain = 0
KQU1 120713Z 21007KT 18/11 A3009 RMK A01 T01840109  RH  061%=      5-min Rain = 0
KQU1 120714Z 21007KT 18/11 A3009 RMK A01 T01840109  RH  062%=      5-min Rain = 0
KQU1 120715Z 21007KT 18/11 A3009 RMK A01 T01840109  RH  062%=      5-min Rain = 0
KQU1 120716Z 21007KT 18/11 A3009 RMK A01 T01840109  RH  062%=      5-min Rain = 0
KQU1 120717Z 21007KT 18/11 A3009 RMK A01 T01840109  RH  062%=      5-min Rain = 0
KQU1 120718Z 22007KT 18/11 A3009 RMK A01 T01840109  RH  062%=      5-min Rain = 0
KQU1 120719Z 22007KT 18/11 A3009 RMK A01 T01840109  RH  062%=      5-min Rain = 0
KQU1 120720Z 22007KT 18/11 A3009 RMK A01 T01830109  RH  062%=      5-min Rain = 0
KQU1 120721Z 22007KT 18/11 A3009 RMK A01 T01830109  RH  062%=      5-min Rain = 0
KQU1 120722Z 22007KT 18/11 A3009 RMK A01 T01820109  RH  062%=      5-min Rain = 0
KQU1 120723Z 21007KT 18/11 A3009 RMK A01 T01820109  RH  062%=      5-min Rain = 0
KQU1 120724Z 21007KT 18/11 A3009 RMK A01 T01820109  RH  062%=      5-min Rain = 0
KQU1 120725Z 21007KT 18/11 A3009 RMK A01 T01820109  RH  062%=      5-min Rain = 0
KQU1 120726Z 21007KT 18/11 A3009 RMK A01 T01820109  RH  062%=      5-min Rain = 0
KQU1 120727Z 21007KT 18/11 A3009 RMK A01 T01820109  RH  062%=      5-min Rain = 0
KQU1 120728Z 21007KT 18/11 A3009 RMK A01 T01820109  RH  062%=      5-min Rain = 0
KQU1 120729Z 21007KT 18/11 A3009 RMK A01 T01830109  RH  062%=      5-min Rain = 0
KQU1 120730Z 21007KT 18/11 A3009 RMK A01 T01830109  RH  062%=      5-min Rain = 0
KQU1 120731Z 21007KT 18/11 A3009 RMK A01 T01830109  RH  062%=      5-min Rain = 0
KQU1 120732Z 21007KT 18/11 A3009 RMK A01 T01830109  RH  062%=      5-min Rain = 0
KQU1 120733Z 21008KT 18/11 A3009 RMK A01 T01840109  RH  062%=      5-min Rain = 0
KQU1 120734Z 22008KT 18/11 A3009 RMK A01 T01840109  RH  061%=      5-min Rain = 0
KQU1 120735Z 22008KT 19/11 A3009 RMK A01 T01850109  RH  061%=      5-min Rain = 0
KQU1 120736Z 22008KT 19/11 A3009 RMK A01 T01850109  RH  061%=      5-min Rain = 0
KQU1 120737Z 22007KT 19/11 A3009 RMK A01 T01860109  RH  061%=      5-min Rain = 0
KQU1 120738Z 22007KT 19/11 A3009 RMK A01 T01860109  RH  061%=      5-min Rain = 0
KQU1 120739Z 22007KT 19/11 A3009 RMK A01 T01860109  RH  061%=      5-min Rain = 0
KQU1 120740Z 22007KT 19/11 A3009 RMK A01 T01860109  RH  061%=      5-min Rain = 0
KQU1 120741Z 22007KT 19/11 A3009 RMK A01 T01860108  RH  061%=      5-min Rain = 0
KQU1 120742Z 22007KT 19/11 A3009 RMK A01 T01860108  RH  061%=      5-min Rain = 0
KQU1 120743Z 22006KT 19/11 A3009 RMK A01 T01850108  RH  061%=      5-min Rain = 0
KQU1 120744Z 22006KT 19/11 A3009 RMK A01 T01850108  RH  061%=      5-min Rain = 0
KQU1 120745Z 21007KT 18/11 A3009 RMK A01 T01840108  RH  061%=      5-min Rain = 0
KQU1 120746Z 21006KT 18/11 A3009 RMK A01 T01840108  RH  061%=      5-min Rain = 0
KQU1 120747Z 21006KT 18/11 A3009 RMK A01 T01840108  RH  061%=      5-min Rain = 0
KQU1 120748Z 22006KT 19/11 A3009 RMK A01 T01850108  RH  061%=      5-min Rain = 0
KQU1 120749Z 21007KT 19/11 A3009 RMK A01 T01850108  RH  061%=      5-min Rain = 0
KQU1 120750Z 22006KT 19/11 A3009 RMK A01 T01850108  RH  061%=      5-min Rain = 0
KQU1 120751Z 22006KT 19/11 A3009 RMK A01 T01850108  RH  061%=      5-min Rain = 0
KQU1 120752Z 22006KT 19/11 A3009 RMK A01 T01850108  RH  061%=      5-min Rain = 0
KQU1 120753Z 22006KT 19/11 A3009 RMK A01 T01850108  RH  061%=      5-min Rain = 0
KQU1 120754Z 22006KT 19/11 A3009 RMK A01 T01850108  RH  061%=      5-min Rain = 0
KQU1 120755Z 22006KT 18/11 A3009 RMK A01 T01840108  RH  061%=      5-min Rain = 0
KQU1 120756Z 22006KT 18/11 A3009 RMK A01 T01840108  RH  061%=      5-min Rain = 0
KQU1 120757Z 22006KT 18/11 A3009 RMK A01 T01840108  RH  061%=      5-min Rain = 0
KQU1 120758Z 22006KT 18/11 A3009 RMK A01 T01840108  RH  061%=      5-min Rain = 0
KQU1 120759Z 22006KT 18/11 A3009 RMK A01 T01830108  RH  061%=      5-min Rain = 0
KQU1 120800Z 22006KT 18/11 A3009 RMK A01 T01830108  RH  061%=      5-min Rain = 0
KQU1 120801Z 22006KT 18/11 A3009 RMK A01 T01830108  RH  061%=      5-min Rain = 0
KQU1 120802Z 22006KT 18/11 A3009 RMK A01 T01830108  RH  062%=      5-min Rain = 0
KQU1 120803Z 22005KT 18/11 A3009 RMK A01 T01820108  RH  062%=      5-min Rain = 0
KQU1 120804Z 22006KT 18/11 A3009 RMK A01 T01820108  RH  062%=      5-min Rain = 0
KQU1 120805Z 22006KT 18/11 A3009 RMK A01 T01820108  RH  062%=      5-min Rain = 0
KQU1 120806Z 22006KT 18/11 A3009 RMK A01 T01820108  RH  062%=      5-min Rain = 0
KQU1 120807Z 23006KT 18/11 A3009 RMK A01 T01830108  RH  062%=      5-min Rain = 0
KQU1 120808Z 23005KT 18/11 A3009 RMK A01 T01830107  RH  061%=      5-min Rain = 0
KQU1 120809Z 22006KT 18/11 A3009 RMK A01 T01830107  RH  061%=      5-min Rain = 0
KQU1 120810Z 23006KT 18/11 A3009 RMK A01 T01830108  RH  061%=      5-min Rain = 0
KQU1 120811Z 22006KT 18/11 A3009 RMK A01 T01830108  RH  062%=      5-min Rain = 0
KQU1 120812Z 22006KT 18/11 A3009 RMK A01 T01820107  RH  062%=      5-min Rain = 0
KQU1 120813Z 23006KT 18/11 A3009 RMK A01 T01820108  RH  062%=      5-min Rain = 0
KQU1 120814Z 23006KT 18/11 A3009 RMK A01 T01810107  RH  062%=      5-min Rain = 0
KQU1 120815Z 22006KT 18/11 A3009 RMK A01 T01810108  RH  062%=      5-min Rain = 0
KQU1 120816Z 22006KT 18/11 A3009 RMK A01 T01810108  RH  062%=      5-min Rain = 0
KQU1 120817Z 22006KT 18/11 A3009 RMK A01 T01810108  RH  062%=      5-min Rain = 0
KQU1 120818Z 23006KT 18/11 A3008 RMK A01 T01810107  RH  062%=      5-min Rain = 0
KQU1 120819Z 23005KT 18/11 A3008 RMK A01 T01800107  RH  062%=      5-min Rain = 0
KQU1 120820Z 23006KT 18/11 A3008 RMK A01 T01800107  RH  062%=      5-min Rain = 0
KQU1 120821Z 23005KT 18/11 A3008 RMK A01 T01800107  RH  063%=      5-min Rain = 0
KQU1 120822Z 23005KT 18/11 A3008 RMK A01 T01790107  RH  063%=      5-min Rain = 0
KQU1 120823Z 23005KT 18/11 A3008 RMK A01 T01790107  RH  063%=      5-min Rain = 0
KQU1 120824Z 23006KT 18/11 A3008 RMK A01 T01780107  RH  063%=      5-min Rain = 0
KQU1 120825Z 23006KT 18/11 A3008 RMK A01 T01780107  RH  063%=      5-min Rain = 0
KQU1 120826Z 23006KT 18/11 A3008 RMK A01 T01780107  RH  063%=      5-min Rain = 0
KQU1 120827Z 23005KT 18/11 A3008 RMK A01 T01770107  RH  064%=      5-min Rain = 0
KQU1 120828Z 23006KT 18/11 A3008 RMK A01 T01760107  RH  064%=      5-min Rain = 0
KQU1 120829Z 23006KT 18/11 A3008 RMK A01 T01760107  RH  064%=      5-min Rain = 0
KQU1 120830Z 23006KT 18/11 A3008 RMK A01 T01750107  RH  064%=      5-min Rain = 0
KQU1 120831Z 23006KT 18/11 A3008 RMK A01 T01750107  RH  064%=      5-min Rain = 0
KQU1 120832Z 23006KT 17/11 A3008 RMK A01 T01740107  RH  065%=      5-min Rain = 0
KQU1 120833Z 23006KT 17/11 A3008 RMK A01 T01740107  RH  065%=      5-min Rain = 0
KQU1 120834Z 23006KT 17/11 A3008 RMK A01 T01740107  RH  065%=      5-min Rain = 0
KQU1 120835Z 24006KT 17/11 A3008 RMK A01 T01740107  RH  065%=      5-min Rain = 0
KQU1 120836Z 24006KT 18/11 A3008 RMK A01 T01750107  RH  064%=      5-min Rain = 0
KQU1 120837Z 24006KT 18/11 A3008 RMK A01 T01750107  RH  064%=      5-min Rain = 0
KQU1 120838Z 24006KT 18/11 A3008 RMK A01 T01750107  RH  064%=      5-min Rain = 0
KQU1 120839Z 24005KT 18/11 A3008 RMK A01 T01750107  RH  064%=      5-min Rain = 0
KQU1 120840Z 25005KT 18/11 A3008 RMK A01 T01750107  RH  064%=      5-min Rain = 0
KQU1 120841Z 25006KT 17/11 A3008 RMK A01 T01740107  RH  065%=      5-min Rain = 0
KQU1 120842Z 25006KT 17/11 A3008 RMK A01 T01740107  RH  065%=      5-min Rain = 0
KQU1 120843Z 25006KT 17/11 A3008 RMK A01 T01730107  RH  065%=      5-min Rain = 0
KQU1 120844Z 25006KT 17/11 A3008 RMK A01 T01720107  RH  065%=      5-min Rain = 0
KQU1 120845Z 25006KT 17/11 A3008 RMK A01 T01710107  RH  066%=      5-min Rain = 0
KQU1 120846Z 25006KT 17/11 A3008 RMK A01 T01710107  RH  066%=      5-min Rain = 0
KQU1 120847Z 25006KT 17/11 A3008 RMK A01 T01710107  RH  066%=      5-min Rain = 0
KQU1 120848Z 25006KT 17/11 A3008 RMK A01 T01710107  RH  066%=      5-min Rain = 0
KQU1 120849Z 25006KT 17/11 A3008 RMK A01 T01710107  RH  066%=      5-min Rain = 0
KQU1 120850Z 25006KT 17/11 A3008 RMK A01 T01710107  RH  066%=      5-min Rain = 0
KQU1 120851Z 25006KT 17/11 A3008 RMK A01 T01710107  RH  066%=      5-min Rain = 0
KQU1 120852Z 25005KT 17/11 A3008 RMK A01 T01710107  RH  066%=      5-min Rain = 0
KQU1 120853Z 25005KT 17/11 A3008 RMK A01 T01710107  RH  066%=      5-min Rain = 0
KQU1 120854Z 25005KT 17/11 A3008 RMK A01 T01700107  RH  066%=      5-min Rain = 0
KQU1 120855Z 25006KT 17/11 A3008 RMK A01 T01700106  RH  066%=      5-min Rain = 0
KQU1 120856Z 24005KT 17/11 A3008 RMK A01 T01700106  RH  066%=      5-min Rain = 0
KQU1 120857Z 25005KT 17/11 A3008 RMK A01 T01690106  RH  066%=      5-min Rain = 0
KQU1 120858Z 24005KT 17/11 A3008 RMK A01 T01690106  RH  067%=      5-min Rain = 0
KQU1 120859Z 25005KT 17/11 A3008 RMK A01 T01680106  RH  067%=      5-min Rain = 0
KQU1 120900Z 25005KT 17/11 A3008 RMK A01 T01680106  RH  067%=      5-min Rain = 0
KQU1 120901Z 24004KT 17/11 A3008 RMK A01 T01680106  RH  067%=      5-min Rain = 0
KQU1 120902Z 24004KT 17/11 A3008 RMK A01 T01680106  RH  067%=      5-min Rain = 0
KQU1 120903Z 24004KT 17/11 A3008 RMK A01 T01680106  RH  067%=      5-min Rain = 0
KQU1 120904Z 24004KT 17/11 A3008 RMK A01 T01680106  RH  067%=      5-min Rain = 0
KQU1 120905Z 24004KT 17/11 A3008 RMK A01 T01680106  RH  067%=      5-min Rain = 0
KQU1 120906Z 24004KT 17/11 A3008 RMK A01 T01680106  RH  067%=      5-min Rain = 0
KQU1 120907Z 24004KT 17/11 A3008 RMK A01 T01670106  RH  067%=      5-min Rain = 0
KQU1 120908Z 24004KT 17/11 A3008 RMK A01 T01670106  RH  067%=      5-min Rain = 0
KQU1 120909Z 24004KT 17/11 A3008 RMK A01 T01660106  RH  068%=      5-min Rain = 0
KQU1 120910Z 24004KT 17/11 A3008 RMK A01 T01660107  RH  068%=      5-min Rain = 0
KQU1 120911Z 24004KT 17/11 A3008 RMK A01 T01650106  RH  068%=      5-min Rain = 0
KQU1 120912Z 24004KT 17/11 A3008 RMK A01 T01650107  RH  068%=      5-min Rain = 0
KQU1 120913Z 25004KT 16/11 A3007 RMK A01 T01640106  RH  069%=      5-min Rain = 0
KQU1 120914Z 25004KT 16/11 A3007 RMK A01 T01640106  RH  069%=      5-min Rain = 0
KQU1 120915Z 25004KT 16/11 A3007 RMK A01 T01640107  RH  069%=      5-min Rain = 0
KQU1 120916Z 25005KT 16/11 A3007 RMK A01 T01640107  RH  069%=      5-min Rain = 0
KQU1 120917Z 25004KT 16/11 A3007 RMK A01 T01630107  RH  069%=      5-min Rain = 0
KQU1 120918Z 25004KT 16/11 A3007 RMK A01 T01630107  RH  069%=      5-min Rain = 0
KQU1 120919Z 26004KT 16/11 A3007 RMK A01 T01640107  RH  069%=      5-min Rain = 0
KQU1 120920Z 26004KT 16/11 A3007 RMK A01 T01640107  RH  069%=      5-min Rain = 0
KQU1 120921Z 26004KT 16/11 A3007 RMK A01 T01640107  RH  069%=      5-min Rain = 0
KQU1 120922Z 26004KT 16/11 A3007 RMK A01 T01640107  RH  069%=      5-min Rain = 0
KQU1 120923Z 26005KT 16/11 A3007 RMK A01 T01640106  RH  069%=      5-min Rain = 0
KQU1 120924Z 26005KT 16/11 A3007 RMK A01 T01640106  RH  069%=      5-min Rain = 0
KQU1 120925Z 26005KT 16/11 A3007 RMK A01 T01640106  RH  069%=      5-min Rain = 0
KQU1 120926Z 26005KT 16/11 A3007 RMK A01 T01640106  RH  069%=      5-min Rain = 0
KQU1 120927Z 26005KT 16/11 A3007 RMK A01 T01640106  RH  069%=      5-min Rain = 0
KQU1 120928Z 25006KT 16/11 A3007 RMK A01 T01640106  RH  069%=      5-min Rain = 0
KQU1 120929Z 25006KT 16/11 A3007 RMK A01 T01640106  RH  068%=      5-min Rain = 0
KQU1 120930Z 25006KT 16/11 A3007 RMK A01 T01640106  RH  068%=      5-min Rain = 0
KQU1 120931Z 25006KT 16/11 A3007 RMK A01 T01640106  RH  068%=      5-min Rain = 0
KQU1 120932Z 25006KT 16/11 A3007 RMK A01 T01640106  RH  068%=      5-min Rain = 0
KQU1 120933Z 25006KT 16/11 A3007 RMK A01 T01640106  RH  068%=      5-min Rain = 0
KQU1 120934Z 25006KT 16/11 A3007 RMK A01 T01640106  RH  068%=      5-min Rain = 0
KQU1 120935Z 25006KT 16/11 A3007 RMK A01 T01640106  RH  068%=      5-min Rain = 0
KQU1 120936Z 25006KT 16/11 A3007 RMK A01 T01640106  RH  068%=      5-min Rain = 0
KQU1 120937Z 25005KT 16/11 A3007 RMK A01 T01640106  RH  068%=      5-min Rain = 0
KQU1 120938Z 25005KT 16/11 A3007 RMK A01 T01640106  RH  069%=      5-min Rain = 0
KQU1 120939Z 25005KT 16/11 A3007 RMK A01 T01630106  RH  069%=      5-min Rain = 0
KQU1 120940Z 25005KT 16/11 A3007 RMK A01 T01630106  RH  069%=      5-min Rain = 0
KQU1 120941Z 25004KT 16/11 A3007 RMK A01 T01630106  RH  069%=      5-min Rain = 0
KQU1 120942Z 25004KT 16/11 A3007 RMK A01 T01630106  RH  069%=      5-min Rain = 0
KQU1 120943Z 25004KT 16/11 A3007 RMK A01 T01630106  RH  069%=      5-min Rain = 0
KQU1 120944Z 26004KT 16/11 A3007 RMK A01 T01630106  RH  069%=      5-min Rain = 0
KQU1 120945Z 26004KT 16/11 A3007 RMK A01 T01630106  RH  069%=      5-min Rain = 0
KQU1 120946Z 26004KT 16/11 A3007 RMK A01 T01630106  RH  069%=      5-min Rain = 0
KQU1 120947Z 26004KT 16/11 A3007 RMK A01 T01640106  RH  069%=      5-min Rain = 0
KQU1 120948Z 26004KT 16/11 A3007 RMK A01 T01640106  RH  068%=      5-min Rain = 0
KQU1 120949Z 26004KT 16/11 A3007 RMK A01 T01640106  RH  068%=      5-min Rain = 0
KQU1 120950Z 26004KT 16/11 A3007 RMK A01 T01640106  RH  068%=      5-min Rain = 0
KQU1 120951Z 26004KT 16/11 A3007 RMK A01 T01640106  RH  068%=      5-min Rain = 0
KQU1 120952Z 27004KT 16/11 A3007 RMK A01 T01640106  RH  068%=      5-min Rain = 0
KQU1 120953Z 27005KT 17/11 A3007 RMK A01 T01650106  RH  068%=      5-min Rain = 0
KQU1 120954Z 27005KT 17/11 A3007 RMK A01 T01650106  RH  068%=      5-min Rain = 0
KQU1 120955Z 27005KT 17/11 A3007 RMK A01 T01650106  RH  068%=      5-min Rain = 0
KQU1 120956Z 27006KT 17/11 A3007 RMK A01 T01650106  RH  068%=      5-min Rain = 0
KQU1 120957Z 27006KT 17/11 A3007 RMK A01 T01650106  RH  068%=      5-min Rain = 0
KQU1 120958Z 27006KT 16/11 A3007 RMK A01 T01640105  RH  068%=      5-min Rain = 0
KQU1 120959Z 27006KT 16/11 A3007 RMK A01 T01630105  RH  068%=      5-min Rain = 0
KQU1 121000Z 27006KT 16/11 A3007 RMK A01 T01630105  RH  069%=      5-min Rain = 0
KQU1 121001Z 27006KT 16/11 A3007 RMK A01 T01630105  RH  068%=      5-min Rain = 0
KQU1 121002Z 27006KT 16/11 A3007 RMK A01 T01640105  RH  068%=      5-min Rain = 0
KQU1 121003Z 27006KT 17/11 A3007 RMK A01 T01650105  RH  068%=      5-min Rain = 0
KQU1 121004Z 27006KT 17/11 A3007 RMK A01 T01660105  RH  067%=      5-min Rain = 0
KQU1 121005Z 27006KT 17/11 A3007 RMK A01 T01670105  RH  067%=      5-min Rain = 0
KQU1 121006Z 27006KT 17/11 A3007 RMK A01 T01680105  RH  066%=      5-min Rain = 0
KQU1 121007Z 27006KT 17/11 A3007 RMK A01 T01680105  RH  066%=      5-min Rain = 0
KQU1 121008Z 28007KT 17/11 A3007 RMK A01 T01680105  RH  066%=      5-min Rain = 0
KQU1 121009Z 28006KT 17/11 A3007 RMK A01 T01680105  RH  066%=      5-min Rain = 0
KQU1 121010Z 28006KT 17/11 A3007 RMK A01 T01680105  RH  066%=      5-min Rain = 0
KQU1 121011Z 28005KT 17/11 A3007 RMK A01 T01670106  RH  067%=      5-min Rain = 0
KQU1 121012Z 28006KT 17/11 A3007 RMK A01 T01660108  RH  069%=      5-min Rain = 0
KQU1 121013Z 28006KT 17/11 A3007 RMK A01 T01650108  RH  069%=      5-min Rain = 0
KQU1 121014Z 28006KT 16/11 A3008 RMK A01 T01640108  RH  069%=      5-min Rain = 0
KQU1 121015Z 28006KT 16/11 A3008 RMK A01 T01630108  RH  070%=      5-min Rain = 0
KQU1 121016Z 27006KT 16/11 A3008 RMK A01 T01630108  RH  070%=      5-min Rain = 0
KQU1 121017Z 27007KT 16/11 A3008 RMK A01 T01620108  RH  070%=      5-min Rain = 0
KQU1 121018Z 27007KT 16/11 A3007 RMK A01 T01620108  RH  071%=      5-min Rain = 0
KQU1 121019Z 27006KT 16/11 A3007 RMK A01 T01610108  RH  071%=      5-min Rain = 0
KQU1 121020Z 27006KT 16/11 A3007 RMK A01 T01610108  RH  071%=      5-min Rain = 0
KQU1 121021Z 27006KT 16/11 A3007 RMK A01 T01600108  RH  071%=      5-min Rain = 0
KQU1 121022Z 27005KT 16/11 A3007 RMK A01 T01600108  RH  071%=      5-min Rain = 0
KQU1 121023Z 27005KT 16/11 A3007 RMK A01 T01600108  RH  071%=      5-min Rain = 0
KQU1 121024Z 27005KT 16/11 A3007 RMK A01 T01600108  RH  071%=      5-min Rain = 0
KQU1 121025Z 27005KT 16/11 A3007 RMK A01 T01590108  RH  072%=      5-min Rain = 0
KQU1 121026Z 27005KT 16/11 A3007 RMK A01 T01590109  RH  072%=      5-min Rain = 0
KQU1 121027Z 27005KT 16/11 A3007 RMK A01 T01580110  RH  073%=      5-min Rain = 0
KQU1 121028Z 27005KT 16/11 A3007 RMK A01 T01580110  RH  073%=      5-min Rain = 0
KQU1 121029Z 27005KT 16/11 A3007 RMK A01 T01580111  RH  073%=      5-min Rain = 0
KQU1 121030Z 27005KT 16/11 A3007 RMK A01 T01570111  RH  074%=      5-min Rain = 0
KQU1 121031Z 27005KT 16/11 A3007 RMK A01 T01570111  RH  074%=      5-min Rain = 0
KQU1 121032Z 27005KT 16/11 A3007 RMK A01 T01570111  RH  074%=      5-min Rain = 0
KQU1 121033Z 27005KT 16/11 A3007 RMK A01 T01560111  RH  074%=      5-min Rain = 0
KQU1 121034Z 27005KT 16/11 A3007 RMK A01 T01560111  RH  074%=      5-min Rain = 0
KQU1 121035Z 28005KT 16/11 A3007 RMK A01 T01560111  RH  074%=      5-min Rain = 0
KQU1 121036Z 28005KT 16/11 A3007 RMK A01 T01560111  RH  074%=      5-min Rain = 0
KQU1 121037Z 29005KT 16/11 A3007 RMK A01 T01560111  RH  074%=      5-min Rain = 0
KQU1 121038Z 29005KT 16/11 A3007 RMK A01 T01550110  RH  075%=      5-min Rain = 0
KQU1 121039Z 30005KT 16/11 A3007 RMK A01 T01550110  RH  074%=      5-min Rain = 0
KQU1 121040Z 30005KT 15/11 A3007 RMK A01 T01540109  RH  074%=      5-min Rain = 0
KQU1 121041Z 31005KT 15/11 A3007 RMK A01 T01540108  RH  074%=      5-min Rain = 0
KQU1 121042Z 32005KT 15/11 A3007 RMK A01 T01540108  RH  074%=      5-min Rain = 0
KQU1 121043Z 33004KT 16/11 A3008 RMK A01 T01550109  RH  074%=      5-min Rain = 0
KQU1 121044Z 34004KT 16/11 A3008 RMK A01 T01560110  RH  074%=      5-min Rain = 0
KQU1 121045Z 34004KT 16/11 A3008 RMK A01 T01560111  RH  074%=      5-min Rain = 0
KQU1 121046Z 33005KT 16/11 A3008 RMK A01 T01570111  RH  074%=      5-min Rain = 0
KQU1 121047Z 33006KT 16/11 A3008 RMK A01 T01580108  RH  072%=      5-min Rain = 0
KQU1 121048Z 35004KT 16/11 A3008 RMK A01 T01590109  RH  072%=      5-min Rain = 0
KQU1 121049Z 34004KT 16/11 A3008 RMK A01 T01590110  RH  072%=      5-min Rain = 0
KQU1 121050Z 33003KT 16/11 A3008 RMK A01 T01600110  RH  072%=      5-min Rain = 0
KQU1 121051Z 31001KT 16/11 A3007 RMK A01 T01600110  RH  072%=      5-min Rain = 0
KQU1 121052Z 28001KT 16/11 A3007 RMK A01 T01610108  RH  071%=      5-min Rain = 0
KQU1 121053Z 35004KT 16/11 A3007 RMK A01 T01630108  RH  070%=      5-min Rain = 0
KQU1 121054Z 00004KT 17/11 A3007 RMK A01 T01650107  RH  069%=      5-min Rain = 0
KQU1 121055Z 00005KT 17/11 A3007 RMK A01 T01660107  RH  068%=      5-min Rain = 0
KQU1 121056Z 36005KT 17/11 A3007 RMK A01 T01660107  RH  068%=      5-min Rain = 0
KQU1 121057Z 34003KT 17/11 A3007 RMK A01 T01660107  RH  068%=      5-min Rain = 0
KQU1 121058Z 34003KT 17/11 A3007 RMK A01 T01650107  RH  068%=      5-min Rain = 0
KQU1 121059Z 34003KT 16/11 A3007 RMK A01 T01630106  RH  069%=      5-min Rain = 0
KQU1 121100Z 34003KT 16/11 A3007 RMK A01 T01610105  RH  069%=      5-min Rain = 0
KQU1 121101Z 33003KT 16/11 A3007 RMK A01 T01610105  RH  070%=      5-min Rain = 0
KQU1 121102Z 33004KT 16/11 A3008 RMK A01 T01590105  RH  070%=      5-min Rain = 0
KQU1 121103Z 34005KT 16/11 A3008 RMK A01 T01590105  RH  070%=      5-min Rain = 0
KQU1 121104Z 34005KT 16/11 A3008 RMK A01 T01580105  RH  071%=      5-min Rain = 0
KQU1 121105Z 34004KT 16/11 A3008 RMK A01 T01580105  RH  071%=      5-min Rain = 0
KQU1 121106Z 34004KT 16/11 A3008 RMK A01 T01570105  RH  071%=      5-min Rain = 0
KQU1 121107Z 33004KT 16/11 A3008 RMK A01 T01570105  RH  071%=      5-min Rain = 0
KQU1 121108Z 32004KT 16/11 A3008 RMK A01 T01570105  RH  071%=      5-min Rain = 0
KQU1 121109Z 32004KT 16/11 A3008 RMK A01 T01560105  RH  072%=      5-min Rain = 0
KQU1 121110Z 34004KT 16/11 A3008 RMK A01 T01550105  RH  072%=      5-min Rain = 0
KQU1 121111Z 34004KT 16/11 A3008 RMK A01 T01560106  RH  072%=      5-min Rain = 0
KQU1 121112Z 34004KT 16/11 A3008 RMK A01 T01560106  RH  072%=      5-min Rain = 0
KQU1 121113Z 34004KT 16/11 A3008 RMK A01 T01570106  RH  072%=      5-min Rain = 0
KQU1 121114Z 34004KT 16/11 A3008 RMK A01 T01570106  RH  072%=      5-min Rain = 0
KQU1 121115Z 34004KT 16/11 A3008 RMK A01 T01580106  RH  071%=      5-min Rain = 0
KQU1 121116Z 34004KT 16/11 A3008 RMK A01 T01570106  RH  071%=      5-min Rain = 0
KQU1 121117Z 34004KT 16/11 A3008 RMK A01 T01570106  RH  071%=      5-min Rain = 0
KQU1 121118Z 35004KT 16/11 A3008 RMK A01 T01570106  RH  071%=      5-min Rain = 0
KQU1 121119Z 35003KT 16/11 A3008 RMK A01 T01560105  RH  072%=      5-min Rain = 0
KQU1 121120Z 34003KT 16/11 A3008 RMK A01 T01560105  RH  072%=      5-min Rain = 0
KQU1 121121Z 35003KT 16/11 A3008 RMK A01 T01550105  RH  072%=      5-min Rain = 0
KQU1 121122Z 35003KT 16/11 A3008 RMK A01 T01550105  RH  072%=      5-min Rain = 0
KQU1 121123Z 34003KT 16/11 A3008 RMK A01 T01550105  RH  072%=      5-min Rain = 0
KQU1 121124Z 34003KT 16/11 A3008 RMK A01 T01560106  RH  072%=      5-min Rain = 0
KQU1 121125Z 34003KT 16/11 A3008 RMK A01 T01560106  RH  072%=      5-min Rain = 0
KQU1 121126Z 33003KT 16/11 A3008 RMK A01 T01550105  RH  072%=      5-min Rain = 0
KQU1 121127Z 33003KT 15/11 A3008 RMK A01 T01540105  RH  073%=      5-min Rain = 0
KQU1 121128Z 33003KT 15/11 A3008 RMK A01 T01530105  RH  073%=      5-min Rain = 0
KQU1 121129Z 33003KT 15/11 A3008 RMK A01 T01530105  RH  073%=      5-min Rain = 0
KQU1 121130Z 33004KT 15/11 A3008 RMK A01 T01530106  RH  073%=      5-min Rain = 0
KQU1 121131Z 32004KT 15/11 A3008 RMK A01 T01540106  RH  073%=      5-min Rain = 0
KQU1 121132Z 33005KT 15/11 A3007 RMK A01 T01540106  RH  073%=      5-min Rain = 0
KQU1 121133Z 32004KT 16/11 A3007 RMK A01 T01550105  RH  072%=      5-min Rain = 0
KQU1 121134Z 33004KT 16/11 A3007 RMK A01 T01550105  RH  072%=      5-min Rain = 0
KQU1 121135Z 32004KT 16/11 A3007 RMK A01 T01550105  RH  072%=      5-min Rain = 0
KQU1 121136Z 33004KT 16/11 A3007 RMK A01 T01550105  RH  072%=      5-min Rain = 0
KQU1 121137Z 33004KT 16/11 A3007 RMK A01 T01550106  RH  072%=      5-min Rain = 0
KQU1 121138Z 33004KT 16/11 A3007 RMK A01 T01550106  RH  072%=      5-min Rain = 0
KQU1 121139Z 33004KT 16/11 A3007 RMK A01 T01560106  RH  072%=      5-min Rain = 0
KQU1 121140Z 32003KT 16/11 A3007 RMK A01 T01560106  RH  072%=      5-min Rain = 0
KQU1 121141Z 32004KT 16/11 A3007 RMK A01 T01550105  RH  072%=      5-min Rain = 0
KQU1 121142Z 33004KT 15/11 A3007 RMK A01 T01540105  RH  072%=      5-min Rain = 0
KQU1 121143Z 33004KT 15/11 A3007 RMK A01 T01530105  RH  073%=      5-min Rain = 0
KQU1 121144Z 34004KT 15/11 A3007 RMK A01 T01530105  RH  073%=      5-min Rain = 0
KQU1 121145Z 34004KT 15/11 A3007 RMK A01 T01540105  RH  073%=      5-min Rain = 0
KQU1 121146Z 35004KT 15/11 A3007 RMK A01 T01540107  RH  073%=      5-min Rain = 0
KQU1 121147Z 35004KT 16/11 A3007 RMK A01 T01550108  RH  074%=      5-min Rain = 0
KQU1 121148Z 34004KT 16/11 A3007 RMK A01 T01560108  RH  073%=      5-min Rain = 0
KQU1 121149Z 35003KT 16/11 A3007 RMK A01 T01560107  RH  073%=      5-min Rain = 0
KQU1 121150Z 34003KT 16/11 A3007 RMK A01 T01560106  RH  072%=      5-min Rain = 0
KQU1 121151Z 35003KT 16/11 A3007 RMK A01 T01550106  RH  072%=      5-min Rain = 0
KQU1 121152Z 34003KT 15/11 A3007 RMK A01 T01540105  RH  072%=      5-min Rain = 0
KQU1 121153Z 34004KT 15/11 A3007 RMK A01 T01530105  RH  073%=      5-min Rain = 0
KQU1 121154Z 34004KT 15/11 A3007 RMK A01 T01520105  RH  073%=      5-min Rain = 0
KQU1 121155Z 33004KT 15/11 A3007 RMK A01 T01520105  RH  074%=      5-min Rain = 0
KQU1 121156Z 34004KT 15/11 A3008 RMK A01 T01510105  RH  074%=      5-min Rain = 0
KQU1 121157Z 33005KT 15/11 A3008 RMK A01 T01500105  RH  074%=      5-min Rain = 0
KQU1 121158Z 32005KT 15/11 A3008 RMK A01 T01490105  RH  075%=      5-min Rain = 0
KQU1 121159Z 32005KT 15/11 A3008 RMK A01 T01490105  RH  075%=      5-min Rain = 0
KQU1 121200Z 33005KT 15/11 A3008 RMK A01 T01490105  RH  075%=      5-min Rain = 0
KQU1 121201Z 33005KT 15/11 A3008 RMK A01 T01490106  RH  075%=      5-min Rain = 0
KQU1 121202Z 33005KT 15/11 A3008 RMK A01 T01500106  RH  075%=      5-min Rain = 0
KQU1 121203Z 33004KT 15/11 A3008 RMK A01 T01520107  RH  074%=      5-min Rain = 0
KQU1 121204Z 33005KT 15/11 A3008 RMK A01 T01530106  RH  074%=      5-min Rain = 0
KQU1 121205Z 34004KT 15/11 A3008 RMK A01 T01530106  RH  074%=      5-min Rain = 0
KQU1 121206Z 34004KT 15/11 A3008 RMK A01 T01530106  RH  073%=      5-min Rain = 0
KQU1 121207Z 33005KT 15/11 A3007 RMK A01 T01540106  RH  073%=      5-min Rain = 0
KQU1 121208Z 33004KT 15/11 A3007 RMK A01 T01540106  RH  073%=      5-min Rain = 0
KQU1 121209Z 32005KT 15/11 A3007 RMK A01 T01540106  RH  073%=      5-min Rain = 0
KQU1 121210Z 32005KT 15/11 A3007 RMK A01 T01530106  RH  073%=      5-min Rain = 0
KQU1 121211Z 32005KT 15/11 A3007 RMK A01 T01530106  RH  073%=      5-min Rain = 0
KQU1 121212Z 31005KT 15/11 A3007 RMK A01 T01520105  RH  074%=      5-min Rain = 0
KQU1 121213Z 31005KT 15/11 A3007 RMK A01 T01510105  RH  074%=      5-min Rain = 0
KQU1 121214Z 32004KT 15/11 A3007 RMK A01 T01510106  RH  074%=      5-min Rain = 0
KQU1 121215Z 32004KT 15/11 A3007 RMK A01 T01510106  RH  074%=      5-min Rain = 0
KQU1 121216Z 32004KT 15/11 A3007 RMK A01 T01510106  RH  074%=      5-min Rain = 0
KQU1 121217Z 32004KT 15/11 A3007 RMK A01 T01520107  RH  074%=      5-min Rain = 0
KQU1 121218Z 31004KT 15/11 A3007 RMK A01 T01530108  RH  074%=      5-min Rain = 0
KQU1 121219Z 31005KT 15/11 A3007 RMK A01 T01540107  RH  074%=      5-min Rain = 0
KQU1 121220Z 31004KT 15/11 A3007 RMK A01 T01540107  RH  074%=      5-min Rain = 0
KQU1 121221Z 31004KT 15/11 A3007 RMK A01 T01530107  RH  074%=      5-min Rain = 0
KQU1 121222Z 31004KT 15/11 A3007 RMK A01 T01530107  RH  074%=      5-min Rain = 0
KQU1 121223Z 31004KT 15/11 A3007 RMK A01 T01520107  RH  074%=      5-min Rain = 0
KQU1 121224Z 31005KT 15/11 A3007 RMK A01 T01520107  RH  074%=      5-min Rain = 0
KQU1 121225Z 31005KT 15/11 A3007 RMK A01 T01520107  RH  075%=      5-min Rain = 0
KQU1 121226Z 31005KT 15/11 A3007 RMK A01 T01510107  RH  075%=      5-min Rain = 0
KQU1 121227Z 31005KT 15/11 A3007 RMK A01 T01510107  RH  075%=      5-min Rain = 0
KQU1 121228Z 31005KT 15/11 A3007 RMK A01 T01500106  RH  075%=      5-min Rain = 0
KQU1 121229Z 31005KT 15/11 A3008 RMK A01 T01490106  RH  075%=      5-min Rain = 0
KQU1 121230Z 31005KT 15/11 A3008 RMK A01 T01490106  RH  075%=      5-min Rain = 0
KQU1 121231Z 31005KT 15/11 A3008 RMK A01 T01490106  RH  076%=      5-min Rain = 0
KQU1 121232Z 30005KT 15/11 A3008 RMK A01 T01480106  RH  076%=      5-min Rain = 0
KQU1 121233Z 30005KT 15/11 A3008 RMK A01 T01480106  RH  076%=      5-min Rain = 0
KQU1 121234Z 31005KT 15/11 A3008 RMK A01 T01480106  RH  076%=      5-min Rain = 0
KQU1 121235Z 31005KT 15/11 A3008 RMK A01 T01480106  RH  076%=      5-min Rain = 0
KQU1 121236Z 31004KT 15/11 A3008 RMK A01 T01480107  RH  076%=      5-min Rain = 0
KQU1 121237Z 31004KT 15/11 A3008 RMK A01 T01480107  RH  076%=      5-min Rain = 0
KQU1 121238Z 31004KT 15/11 A3008 RMK A01 T01480108  RH  076%=      5-min Rain = 0
KQU1 121239Z 31004KT 15/11 A3008 RMK A01 T01490108  RH  076%=      5-min Rain = 0
KQU1 121240Z 31004KT 15/11 A3008 RMK A01 T01500108  RH  076%=      5-min Rain = 0
KQU1 121241Z 31004KT 15/11 A3008 RMK A01 T01500108  RH  076%=      5-min Rain = 0
KQU1 121242Z 31004KT 15/11 A3008 RMK A01 T01500108  RH  076%=      5-min Rain = 0
KQU1 121243Z 30004KT 15/11 A3008 RMK A01 T01500108  RH  076%=      5-min Rain = 0
KQU1 121244Z 30005KT 15/11 A3008 RMK A01 T01500108  RH  076%=      5-min Rain = 0
KQU1 121245Z 30005KT 15/11 A3008 RMK A01 T01500108  RH  076%=      5-min Rain = 0
KQU1 121246Z 30005KT 15/11 A3008 RMK A01 T01500108  RH  076%=      5-min Rain = 0
KQU1 121247Z 31004KT 15/11 A3008 RMK A01 T01500108  RH  076%=      5-min Rain = 0
KQU1 121248Z 31004KT 15/11 A3008 RMK A01 T01500108  RH  076%=      5-min Rain = 0
KQU1 121249Z 31004KT 15/11 A3008 RMK A01 T01500109  RH  076%=      5-min Rain = 0
KQU1 121250Z 30004KT 15/11 A3008 RMK A01 T01510109  RH  076%=      5-min Rain = 0
KQU1 121251Z 30004KT 15/11 A3008 RMK A01 T01510109  RH  076%=      5-min Rain = 0
KQU1 121252Z 30004KT 15/11 A3008 RMK A01 T01520109  RH  076%=      5-min Rain = 0
KQU1 121253Z 30004KT 15/11 A3008 RMK A01 T01520109  RH  076%=      5-min Rain = 0
KQU1 121254Z 30003KT 15/11 A3008 RMK A01 T01530110  RH  076%=      5-min Rain = 0
KQU1 121255Z 30003KT 15/11 A3008 RMK A01 T01530111  RH  076%=      5-min Rain = 0
KQU1 121256Z 29003KT 15/11 A3008 RMK A01 T01540112  RH  076%=      5-min Rain = 0
KQU1 121257Z 31002KT 15/11 A3008 RMK A01 T01540112  RH  076%=      5-min Rain = 0
KQU1 121258Z 31002KT 16/11 A3008 RMK A01 T01550112  RH  076%=      5-min Rain = 0
KQU1 121259Z 31002KT 16/11 A3008 RMK A01 T01550112  RH  075%=      5-min Rain = 0
KQU1 121300Z 32002KT 16/11 A3008 RMK A01 T01560112  RH  075%=      5-min Rain = 0
KQU1 121301Z 32002KT 16/11 A3008 RMK A01 T01560111  RH  074%=      5-min Rain = 0
KQU1 121302Z 35001KT 16/11 A3008 RMK A01 T01570112  RH  074%=      5-min Rain = 0
KQU1 121303Z 34001KT 16/11 A3008 RMK A01 T01580113  RH  074%=      5-min Rain = 0
KQU1 121304Z 31001KT 16/11 A3008 RMK A01 T01600113  RH  074%=      5-min Rain = 0
KQU1 121305Z 34000KT 16/11 A3008 RMK A01 T01610114  RH  074%=      5-min Rain = 0
KQU1 121306Z 32001KT 16/11 A3008 RMK A01 T01620113  RH  073%=      5-min Rain = 0
KQU1 121307Z 34002KT 16/11 A3008 RMK A01 T01620112  RH  072%=      5-min Rain = 0
KQU1 121308Z 34003KT 16/11 A3008 RMK A01 T01630112  RH  072%=      5-min Rain = 0
KQU1 121309Z 30003KT 16/11 A3008 RMK A01 T01630112  RH  072%=      5-min Rain = 0
KQU1 121310Z 33002KT 16/11 A3008 RMK A01 T01630112  RH  072%=      5-min Rain = 0
KQU1 121311Z 31002KT 16/11 A3008 RMK A01 T01640113  RH  072%=      5-min Rain = 0
KQU1 121312Z 34002KT 16/11 A3008 RMK A01 T01640113  RH  072%=      5-min Rain = 0
KQU1 121313Z 32002KT 17/11 A3008 RMK A01 T01650113  RH  072%=      5-min Rain = 0
KQU1 121314Z 32002KT 17/11 A3008 RMK A01 T01650114  RH  071%=      5-min Rain = 0
KQU1 121315Z 32002KT 17/11 A3008 RMK A01 T01660114  RH  071%=      5-min Rain = 0
KQU1 121316Z 32002KT 17/11 A3008 RMK A01 T01670114  RH  071%=      5-min Rain = 0
KQU1 121317Z 31002KT 17/11 A3008 RMK A01 T01680114  RH  070%=      5-min Rain = 0
KQU1 121318Z 33002KT 17/11 A3008 RMK A01 T01690114  RH  070%=      5-min Rain = 0
KQU1 121319Z 31002KT 17/11 A3008 RMK A01 T01700114  RH  070%=      5-min Rain = 0
KQU1 121320Z 32002KT 17/11 A3008 RMK A01 T01710114  RH  069%=      5-min Rain = 0
KQU1 121321Z 31002KT 17/12 A3008 RMK A01 T01720115  RH  069%=      5-min Rain = 0
KQU1 121322Z 31002KT 17/12 A3008 RMK A01 T01730115  RH  069%=      5-min Rain = 0
KQU1 121323Z 33002KT 17/12 A3008 RMK A01 T01740116  RH  069%=      5-min Rain = 0
KQU1 121324Z 33002KT 18/12 A3008 RMK A01 T01750116  RH  068%=      5-min Rain = 0
KQU1 121325Z 34001KT 18/12 A3008 RMK A01 T01760116  RH  068%=      5-min Rain = 0
KQU1 121326Z 34000KT 18/12 A3008 RMK A01 T01760116  RH  067%=      5-min Rain = 0
KQU1 121327Z 32000KT 18/12 A3008 RMK A01 T01770117  RH  068%=      5-min Rain = 0
KQU1 121328Z 32000KT 18/12 A3008 RMK A01 T01780119  RH  068%=      5-min Rain = 0
KQU1 121329Z 00000KT 18/12 A3008 RMK A01 T01800121  RH  068%=      5-min Rain = 0
KQU1 121330Z 00000KT 18/12 A3008 RMK A01 T01810124  RH  069%=      5-min Rain = 0
KQU1 121331Z 00000KT 18/13 A3008 RMK A01 T01830126  RH  069%=      5-min Rain = 0
KQU1 121332Z 00000KT 18/13 A3008 RMK A01 T01840126  RH  069%=      5-min Rain = 0
KQU1 121333Z 00000KT 19/13 A3008 RMK A01 T01860127  RH  069%=      5-min Rain = 0
KQU1 121334Z 00000KT 19/13 A3008 RMK A01 T01870126  RH  068%=      5-min Rain = 0
KQU1 121335Z 00000KT 19/13 A3008 RMK A01 T01880127  RH  068%=      5-min Rain = 0
KQU1 121336Z 00000KT 19/13 A3008 RMK A01 T01900128  RH  068%=      5-min Rain = 0
KQU1 121337Z 00000KT 19/13 A3008 RMK A01 T01910129  RH  067%=      5-min Rain = 0
KQU1 121338Z 00000KT 19/13 A3008 RMK A01 T01930128  RH  066%=      5-min Rain = 0
KQU1 121339Z 00000KT 19/13 A3008 RMK A01 T01940127  RH  065%=      5-min Rain = 0
KQU1 121340Z 00000KT 20/13 A3008 RMK A01 T01960128  RH  065%=      5-min Rain = 0
KQU1 121341Z 00000KT 20/13 A3008 RMK A01 T01970128  RH  064%=      5-min Rain = 0
KQU1 121342Z 10001KT 20/13 A3008 RMK A01 T01990127  RH  063%=      5-min Rain = 0
KQU1 121343Z 12000KT 20/13 A3008 RMK A01 T02010126  RH  062%=      5-min Rain = 0
KQU1 121344Z 14000KT 20/13 A3008 RMK A01 T02030129  RH  062%=      5-min Rain = 0
KQU1 121345Z 13001KT 21/13 A3008 RMK A01 T02060127  RH  061%=      5-min Rain = 0
KQU1 121346Z 15000KT 21/12 A3008 RMK A01 T02080124  RH  059%=      5-min Rain = 0
KQU1 121347Z 15000KT 21/12 A3008 RMK A01 T02080121  RH  057%=      5-min Rain = 0
KQU1 121348Z 17000KT 21/12 A3008 RMK A01 T02090123  RH  058%=      5-min Rain = 0
KQU1 121349Z 16001KT 21/12 A3008 RMK A01 T02090120  RH  057%=      5-min Rain = 0
KQU1 121350Z 17002KT 21/12 A3008 RMK A01 T02090120  RH  057%=      5-min Rain = 0
KQU1 121351Z 19001KT 21/12 A3008 RMK A01 T02090123  RH  058%=      5-min Rain = 0
KQU1 121352Z 17001KT 21/12 A3008 RMK A01 T02100121  RH  057%=      5-min Rain = 0
KQU1 121353Z 18002KT 21/12 A3008 RMK A01 T02100119  RH  056%=      5-min Rain = 0
KQU1 121354Z 17003KT 21/12 A3008 RMK A01 T02090116  RH  055%=      5-min Rain = 0
KQU1 121355Z 17002KT 21/12 A3008 RMK A01 T02080117  RH  056%=      5-min Rain = 0
KQU1 121356Z 17003KT 21/12 A3008 RMK A01 T02080119  RH  056%=      5-min Rain = 0
KQU1 121357Z 18003KT 21/12 A3007 RMK A01 T02080116  RH  056%=      5-min Rain = 0
KQU1 121358Z 18002KT 21/12 A3007 RMK A01 T02080115  RH  055%=      5-min Rain = 0
KQU1 121359Z 18003KT 21/12 A3007 RMK A01 T02080118  RH  056%=      5-min Rain = 0
KQU1 121400Z 20003KT 21/12 A3007 RMK A01 T02090115  RH  055%=      5-min Rain = 0
KQU1 121401Z 19003KT 21/12 A3007 RMK A01 T02100117  RH  055%=      5-min Rain = 0
KQU1 121402Z 19004KT 21/12 A3007 RMK A01 T02110118  RH  055%=      5-min Rain = 0
KQU1 121403Z 20004KT 21/12 A3007 RMK A01 T02120116  RH  054%=      5-min Rain = 0
KQU1 121404Z 20003KT 21/12 A3007 RMK A01 T02130117  RH  054%=      5-min Rain = 0
KQU1 121405Z 21004KT 21/12 A3007 RMK A01 T02140115  RH  053%=      5-min Rain = 0
KQU1 121406Z 20004KT 22/12 A3007 RMK A01 T02150116  RH  053%=      5-min Rain = 0
KQU1 121407Z 20004KT 22/12 A3007 RMK A01 T02160115  RH  052%=      5-min Rain = 0
KQU1 121408Z 20004KT 22/12 A3007 RMK A01 T02180115  RH  052%=      5-min Rain = 0
KQU1 121409Z 21004KT 22/12 A3007 RMK A01 T02190115  RH  051%=      5-min Rain = 0
KQU1 121410Z 20004KT 22/11 A3007 RMK A01 T02200113  RH  050%=      5-min Rain = 0
KQU1 121411Z 19003KT 22/11 A3007 RMK A01 T02210114  RH  051%=      5-min Rain = 0
KQU1 121412Z 19003KT 22/12 A3007 RMK A01 T02220115  RH  051%=      5-min Rain = 0
KQU1 121413Z 19004KT 22/11 A3007 RMK A01 T02230114  RH  050%=      5-min Rain = 0
KQU1 121414Z 21006KT 22/11 A3007 RMK A01 T02240110  RH  048%=      5-min Rain = 0
KQU1 121415Z 19005KT 23/11 A3007 RMK A01 T02250109  RH  048%=      5-min Rain = 0
KQU1 121416Z 19006KT 23/11 A3007 RMK A01 T02260112  RH  048%=      5-min Rain = 0
KQU1 121417Z 19006KT 23/11 A3007 RMK A01 T02270108  RH  047%=      5-min Rain = 0
KQU1 121418Z 19007KT 23/11 A3007 RMK A01 T02280107  RH  046%=      5-min Rain = 0
KQU1 121419Z 19007KT 23/11 A3007 RMK A01 T02280105  RH  046%=      5-min Rain = 0
KQU1 121420Z 20007KT 23/11 A3007 RMK A01 T02280105  RH  046%=      5-min Rain = 0
KQU1 121421Z 20007KT 23/11 A3007 RMK A01 T02280105  RH  046%=      5-min Rain = 0
KQU1 121422Z 21007KT 23/11 A3007 RMK A01 T02280106  RH  046%=      5-min Rain = 0
KQU1 121423Z 21007KT 23/11 A3007 RMK A01 T02280106  RH  046%=      5-min Rain = 0
KQU1 121424Z 21007KT 23/11 A3007 RMK A01 T02280106  RH  046%=      5-min Rain = 0
KQU1 121425Z 20007KT 23/11 A3007 RMK A01 T02290107  RH  046%=      5-min Rain = 0
KQU1 121426Z 21007KT 23/11 A3007 RMK A01 T02300106  RH  046%=      5-min Rain = 0
KQU1 121427Z 21006KT 23/11 A3007 RMK A01 T02310107  RH  046%=      5-min Rain = 0
KQU1 121428Z 21006KT 23/11 A3007 RMK A01 T02310106  RH  045%=      5-min Rain = 0
KQU1 121429Z 21007KT 23/11 A3007 RMK A01 T02320109  RH  046%=      5-min Rain = 0
KQU1 121430Z 21007KT 23/11 A3007 RMK A01 T02330107  RH  045%=      5-min Rain = 0
KQU1 121431Z 20007KT 23/11 A3007 RMK A01 T02330106  RH  045%=      5-min Rain = 0
KQU1 121432Z 20007KT 23/11 A3007 RMK A01 T02340106  RH  044%=      5-min Rain = 0
KQU1 121433Z 21008KT 23/11 A3007 RMK A01 T02340105  RH  044%=      5-min Rain = 0
KQU1 121434Z 21007KT 23/10 A3007 RMK A01 T02340104  RH  044%=      5-min Rain = 0
KQU1 121435Z 21007KT 23/10 A3007 RMK A01 T02340104  RH  044%=      5-min Rain = 0
KQU1 121436Z 20007KT 24/11 A3007 RMK A01 T02350105  RH  044%=      5-min Rain = 0
KQU1 121437Z 20005KT 24/11 A3007 RMK A01 T02350105  RH  044%=      5-min Rain = 0
KQU1 121438Z 19006KT 24/10 A3007 RMK A01 T02360104  RH  043%=      5-min Rain = 0
KQU1 121439Z 20007KT 24/11 A3007 RMK A01 T02360105  RH  043%=      5-min Rain = 0
KQU1 121440Z 20007KT 24/10 A3007 RMK A01 T02370102  RH  043%=      5-min Rain = 0
KQU1 121441Z 20006KT 24/10 A3007 RMK A01 T02360102  RH  043%=      5-min Rain = 0
KQU1 121442Z 19007KT 24/10 A3007 RMK A01 T02360103  RH  043%=      5-min Rain = 0
KQU1 121443Z 20006KT 24/10 A3007 RMK A01 T02360103  RH  043%=      5-min Rain = 0
KQU1 121444Z 20007KT 24/10 A3007 RMK A01 T02360103  RH  043%=      5-min Rain = 0
KQU1 121445Z 20006KT 24/10 A3007 RMK A01 T02360102  RH  043%=      5-min Rain = 0
KQU1 121446Z 20006KT 24/10 A3007 RMK A01 T02370103  RH  043%=      5-min Rain = 0
KQU1 121447Z 20006KT 24/10 A3007 RMK A01 T02370101  RH  042%=      5-min Rain = 0
KQU1 121448Z 21005KT 24/10 A3007 RMK A01 T02370103  RH  043%=      5-min Rain = 0
KQU1 121449Z 21006KT 24/10 A3007 RMK A01 T02370102  RH  043%=      5-min Rain = 0
KQU1 121450Z 21005KT 24/10 A3007 RMK A01 T02370104  RH  043%=      5-min Rain = 0
KQU1 121451Z 22005KT 24/11 A3007 RMK A01 T02380105  RH  043%=      5-min Rain = 0
KQU1 121452Z 22005KT 24/11 A3007 RMK A01 T02390107  RH  043%=      5-min Rain = 0
KQU1 121453Z 20005KT 24/11 A3006 RMK A01 T02400107  RH  043%=      5-min Rain = 0
KQU1 121454Z 22004KT 24/10 A3006 RMK A01 T02410104  RH  042%=      5-min Rain = 0
KQU1 121455Z 20004KT 24/11 A3006 RMK A01 T02420109  RH  043%=      5-min Rain = 0
KQU1 121456Z 22005KT 24/11 A3006 RMK A01 T02430108  RH  043%=      5-min Rain = 0
KQU1 121457Z 22006KT 24/11 A3006 RMK A01 T02440107  RH  042%=      5-min Rain = 0
KQU1 121458Z 21006KT 24/11 A3006 RMK A01 T02440106  RH  042%=      5-min Rain = 0
KQU1 121459Z 21006KT 25/11 A3006 RMK A01 T02450105  RH  041%=      5-min Rain = 0
KQU1 121500Z 21006KT 25/11 A3006 RMK A01 T02450106  RH  042%=      5-min Rain = 0
KQU1 121501Z 21004KT 25/11 A3006 RMK A01 T02460109  RH  042%=      5-min Rain = 0
KQU1 121502Z 20006KT 25/11 A3006 RMK A01 T02470106  RH  041%=      5-min Rain = 0
KQU1 121503Z 22006KT 25/11 A3006 RMK A01 T02470107  RH  041%=      5-min Rain = 0
KQU1 121504Z 22007KT 25/10 A3006 RMK A01 T02470102  RH  040%=      5-min Rain = 0
KQU1 121505Z 22005KT 25/10 A3006 RMK A01 T02470104  RH  041%=      5-min Rain = 0
KQU1 121506Z 23006KT 25/11 A3006 RMK A01 T02480105  RH  041%=      5-min Rain = 0
KQU1 121507Z 22008KT 25/10 A3006 RMK A01 T02480103  RH  040%=      5-min Rain = 0
KQU1 121508Z 21006KT 25/10 A3006 RMK A01 T02480101  RH  039%=      5-min Rain = 0
KQU1 121509Z 21007KT 25/10 A3006 RMK A01 T02480101  RH  039%=      5-min Rain = 0
KQU1 121510Z 21006KT 25/10 A3006 RMK A01 T02480104  RH  040%=      5-min Rain = 0
KQU1 121511Z 21006KT 25/10 A3006 RMK A01 T02490102  RH  039%=      5-min Rain = 0
KQU1 121512Z 22005KT 25/11 A3006 RMK A01 T02500109  RH  041%=      5-min Rain = 0
KQU1 121513Z 20007KT 25/10 A3006 RMK A01 T02510101  RH  039%=      5-min Rain = 0
KQU1 121514Z 20007KT 25/10 A3006 RMK A01 T02500103  RH  039%=      5-min Rain = 0
KQU1 121515Z 20006KT 25/11 A3006 RMK A01 T02510105  RH  040%=      5-min Rain = 0
KQU1 121516Z 21008KT 25/10 A3006 RMK A01 T02520104  RH  039%=      5-min Rain = 0
KQU1 121517Z 22007KT 25/10 A3006 RMK A01 T02520103  RH  039%=      5-min Rain = 0
KQU1 121518Z 21007KT 25/10 A3006 RMK A01 T02520104  RH  039%=      5-min Rain = 0
KQU1 121519Z 21007KT 25/10 A3006 RMK A01 T02520103  RH  039%=      5-min Rain = 0
KQU1 121520Z 20006KT 25/11 A3006 RMK A01 T02510107  RH  040%=      5-min Rain = 0
KQU1 121521Z 20007KT 25/11 A3006 RMK A01 T02530108  RH  040%=      5-min Rain = 0
KQU1 121522Z 20008KT 25/11 A3006 RMK A01 T02530105  RH  039%=      5-min Rain = 0
KQU1 121523Z 21008KT 25/10 A3006 RMK A01 T02520101  RH  039%=      5-min Rain = 0
KQU1 121524Z 21008KT 25/11 A3006 RMK A01 T02530105  RH  039%=      5-min Rain = 0
KQU1 121525Z 22008KT 25/10 A3006 RMK A01 T02530104  RH  039%=      5-min Rain = 0
KQU1 121526Z 21010KT 25/10 A3006 RMK A01 T02540103  RH  039%=      5-min Rain = 0
KQU1 121527Z 21009KT 25/10 A3006 RMK A01 T02540101  RH  038%=      5-min Rain = 0
KQU1 121528Z 21009KT 25/10 A3006 RMK A01 T02540103  RH  039%=      5-min Rain = 0
KQU1 121529Z 21008KT 25/10 A3006 RMK A01 T02540104  RH  039%=      5-min Rain = 0
KQU1 121530Z 21009KT 26/11 A3006 RMK A01 T02550105  RH  039%=      5-min Rain = 0
KQU1 121531Z 20008KT 25/10 A3006 RMK A01 T02540104  RH  039%=      5-min Rain = 0
KQU1 121532Z 21007KT 25/11 A3006 RMK A01 T02540105  RH  039%=      5-min Rain = 0
KQU1 121533Z 20007KT 25/11 A3006 RMK A01 T02540105  RH  039%=      5-min Rain = 0
KQU1 121534Z 21007KT 26/10 A3006 RMK A01 T02550104  RH  039%=      5-min Rain = 0
KQU1 121535Z 22006KT 26/11 A3006 RMK A01 T02550106  RH  039%=      5-min Rain = 0
KQU1 121536Z 22007KT 26/11 A3006 RMK A01 T02550108  RH  040%=      5-min Rain = 0
KQU1 121537Z 21006KT 26/11 A3006 RMK A01 T02560108  RH  039%=      5-min Rain = 0
KQU1 121538Z 21007KT 26/11 A3006 RMK A01 T02570109  RH  039%=      5-min Rain = 0
KQU1 121539Z 20006KT 26/11 A3006 RMK A01 T02580107  RH  039%=      5-min Rain = 0
KQU1 121540Z 20006KT 26/11 A3006 RMK A01 T02590111  RH  040%=      5-min Rain = 0
KQU1 121541Z 21007KT 26/11 A3006 RMK A01 T02600109  RH  039%=      5-min Rain = 0
KQU1 121542Z 20005KT 26/11 A3006 RMK A01 T02600108  RH  039%=      5-min Rain = 0
KQU1 121543Z 20005KT 26/11 A3006 RMK A01 T02600113  RH  040%=      5-min Rain = 0
KQU1 121544Z 21006KT 26/11 A3006 RMK A01 T02620112  RH  039%=      5-min Rain = 0
KQU1 121545Z 21007KT 26/11 A3006 RMK A01 T02620108  RH  038%=      5-min Rain = 0
KQU1 121546Z 20007KT 26/11 A3006 RMK A01 T02610108  RH  038%=      5-min Rain = 0
KQU1 121547Z 21007KT 26/11 A3006 RMK A01 T02610110  RH  039%=      5-min Rain = 0
KQU1 121548Z 22007KT 26/11 A3006 RMK A01 T02620112  RH  039%=      5-min Rain = 0
KQU1 121549Z 22006KT 26/11 A3006 RMK A01 T02620109  RH  038%=      5-min Rain = 0
KQU1 121550Z 23005KT 26/11 A3006 RMK A01 T02620110  RH  039%=      5-min Rain = 0
KQU1 121551Z 19005KT 26/12 A3006 RMK A01 T02630116  RH  040%=      5-min Rain = 0
KQU1 121552Z 20004KT 27/12 A3006 RMK A01 T02650117  RH  040%=      5-min Rain = 0
KQU1 121553Z 22005KT 27/11 A3006 RMK A01 T02660112  RH  038%=      5-min Rain = 0
KQU1 121554Z 22006KT 27/11 A3006 RMK A01 T02660111  RH  038%=      5-min Rain = 0
KQU1 121555Z 21006KT 27/11 A3006 RMK A01 T02650111  RH  038%=      5-min Rain = 0
KQU1 121556Z 19007KT 27/11 A3006 RMK A01 T02650112  RH  038%=      5-min Rain = 0
KQU1 121557Z 19006KT 27/11 A3006 RMK A01 T02650114  RH  039%=      5-min Rain = 0
KQU1 121558Z 19006KT 27/11 A3006 RMK A01 T02660114  RH  039%=      5-min Rain = 0
KQU1 121559Z 20007KT 27/11 A3006 RMK A01 T02670112  RH  038%=      5-min Rain = 0
KQU1 121600Z 19007KT 27/11 A3006 RMK A01 T02680110  RH  037%=      5-min Rain = 0
KQU1 121601Z 20005KT 27/11 A3006 RMK A01 T02680111  RH  038%=      5-min Rain = 0
KQU1 121602Z 22005KT 27/11 A3006 RMK A01 T02690110  RH  037%=      5-min Rain = 0
KQU1 121603Z 22004KT 27/11 A3006 RMK A01 T02690111  RH  037%=      5-min Rain = 0
KQU1 121604Z 21004KT 27/11 A3006 RMK A01 T02680109  RH  037%=      5-min Rain = 0
KQU1 121605Z 20006KT 27/11 A3006 RMK A01 T02690113  RH  038%=      5-min Rain = 0
KQU1 121606Z 19006KT 27/11 A3006 RMK A01 T02700114  RH  038%=      5-min Rain = 0
KQU1 121607Z 20005KT 27/11 A3006 RMK A01 T02720110  RH  037%=      5-min Rain = 0
KQU1 121608Z 23005KT 27/11 A3005 RMK A01 T02720110  RH  036%=      5-min Rain = 0
KQU1 121609Z 23003KT 27/11 A3005 RMK A01 T02720108  RH  036%=      5-min Rain = 0
KQU1 121610Z 18005KT 27/11 A3005 RMK A01 T02720111  RH  037%=      5-min Rain = 0
KQU1 121611Z 16005KT 27/11 A3005 RMK A01 T02730109  RH  036%=      5-min Rain = 0
KQU1 121612Z 17006KT 27/11 A3005 RMK A01 T02730113  RH  037%=      5-min Rain = 0
KQU1 121613Z 19006KT 27/11 A3005 RMK A01 T02740111  RH  036%=      5-min Rain = 0
KQU1 121614Z 18005KT 28/11 A3005 RMK A01 T02750109  RH  036%=      5-min Rain = 0
KQU1 121615Z 16005KT 28/11 A3005 RMK A01 T02750106  RH  035%=      5-min Rain = 0
KQU1 121616Z 17005KT 28/11 A3005 RMK A01 T02750113  RH  036%=      5-min Rain = 0
KQU1 121617Z 18005KT 28/11 A3005 RMK A01 T02760107  RH  035%=      5-min Rain = 0
KQU1 121618Z 16005KT 28/11 A3005 RMK A01 T02760109  RH  035%=      5-min Rain = 0
KQU1 121619Z 18005KT 28/11 A3005 RMK A01 T02760108  RH  035%=      5-min Rain = 0
KQU1 121620Z 18006KT 28/11 A3005 RMK A01 T02760106  RH  035%=      5-min Rain = 0
KQU1 121621Z 17004KT 28/11 A3005 RMK A01 T02750108  RH  035%=      5-min Rain = 0
KQU1 121622Z 16004KT 28/11 A3005 RMK A01 T02750109  RH  036%=      5-min Rain = 0
KQU1 121623Z 17004KT 28/11 A3005 RMK A01 T02760108  RH  035%=      5-min Rain = 0
KQU1 121624Z 17004KT 28/11 A3005 RMK A01 T02760106  RH  035%=      5-min Rain = 0
KQU1 121625Z 15003KT 28/11 A3005 RMK A01 T02760110  RH  036%=      5-min Rain = 0
KQU1 121626Z 19004KT 28/11 A3005 RMK A01 T02780113  RH  036%=      5-min Rain = 0
KQU1 121627Z 21005KT 28/11 A3005 RMK A01 T02790109  RH  035%=      5-min Rain = 0
KQU1 121628Z 22004KT 28/11 A3005 RMK A01 T02780106  RH  034%=      5-min Rain = 0
KQU1 121629Z 21002KT 28/10 A3005 RMK A01 T02780104  RH  034%=      5-min Rain = 0
KQU1 121630Z 20004KT 28/10 A3005 RMK A01 T02770104  RH  034%=      5-min Rain = 0
KQU1 121631Z 17004KT 28/11 A3005 RMK A01 T02780108  RH  035%=      5-min Rain = 0
KQU1 121632Z 15005KT 28/11 A3005 RMK A01 T02790111  RH  035%=      5-min Rain = 0
KQU1 121633Z 16006KT 28/11 A3005 RMK A01 T02810114  RH  035%=      5-min Rain = 0
KQU1 121634Z 18004KT 28/11 A3005 RMK A01 T02820107  RH  034%=      5-min Rain = 0
KQU1 121635Z 19003KT 28/11 A3005 RMK A01 T02810105  RH  033%=      5-min Rain = 0
KQU1 121636Z 17004KT 28/11 A3004 RMK A01 T02800106  RH  034%=      5-min Rain = 0
KQU1 121637Z 15004KT 28/11 A3004 RMK A01 T02810110  RH  035%=      5-min Rain = 0
KQU1 121638Z 17003KT 28/11 A3004 RMK A01 T02830109  RH  034%=      5-min Rain = 0
KQU1 121639Z 20005KT 28/11 A3004 RMK A01 T02830106  RH  033%=      5-min Rain = 0
KQU1 121640Z 20005KT 28/10 A3004 RMK A01 T02820104  RH  033%=      5-min Rain = 0
KQU1 121641Z 20003KT 28/11 A3004 RMK A01 T02810105  RH  033%=      5-min Rain = 0
KQU1 121642Z 16002KT 28/11 A3004 RMK A01 T02810105  RH  033%=      5-min Rain = 0
KQU1 121643Z 15006KT 28/11 A3004 RMK A01 T02820107  RH  034%=      5-min Rain = 0
KQU1 121644Z 15006KT 28/11 A3004 RMK A01 T02830109  RH  034%=      5-min Rain = 0
KQU1 121645Z 16004KT 28/11 A3004 RMK A01 T02840107  RH  033%=      5-min Rain = 0
KQU1 121646Z 17004KT 28/11 A3004 RMK A01 T02840108  RH  033%=      5-min Rain = 0
KQU1 121647Z 15003KT 29/11 A3004 RMK A01 T02850107  RH  033%=      5-min Rain = 0
KQU1 121648Z 17003KT 29/11 A3004 RMK A01 T02860109  RH  033%=      5-min Rain = 0
KQU1 121649Z 16005KT 29/11 A3004 RMK A01 T02880110  RH  033%=      5-min Rain = 0
KQU1 121650Z 16001KT 29/10 A3004 RMK A01 T02880104  RH  032%=      5-min Rain = 0
KQU1 121651Z 15002KT 29/11 A3004 RMK A01 T02880107  RH  032%=      5-min Rain = 0
KQU1 121652Z 13001KT 29/11 A3004 RMK A01 T02890110  RH  033%=      5-min Rain = 0
KQU1 121653Z 12003KT 29/11 A3004 RMK A01 T02900108  RH  032%=      5-min Rain = 0
KQU1 121654Z 13002KT 29/11 A3004 RMK A01 T02910110  RH  033%=      5-min Rain = 0
KQU1 121655Z 14004KT 29/11 A3004 RMK A01 T02920110  RH  032%=      5-min Rain = 0
KQU1 121656Z 17004KT 29/11 A3004 RMK A01 T02930107  RH  032%=      5-min Rain = 0
KQU1 121657Z 14006KT 29/11 A3004 RMK A01 T02920110  RH  033%=      5-min Rain = 0
KQU1 121658Z 14006KT 29/11 A3004 RMK A01 T02920111  RH  033%=      5-min Rain = 0
KQU1 121659Z 19005KT 29/11 A3004 RMK A01 T02920109  RH  032%=      5-min Rain = 0
KQU1 121700Z 21004KT 29/10 A3004 RMK A01 T02910103  RH  031%=      5-min Rain = 0
KQU1 121701Z 26003KT 29/11 A3004 RMK A01 T02890105  RH  032%=      5-min Rain = 0
KQU1 121702Z 30002KT 29/10 A3004 RMK A01 T02870104  RH  032%=      5-min Rain = 0
KQU1 121703Z 18000KT 29/11 A3004 RMK A01 T02870112  RH  034%=      5-min Rain = 0
KQU1 121704Z 15002KT 29/11 A3004 RMK A01 T02890109  RH  033%=      5-min Rain = 0
KQU1 121705Z 17000KT 29/11 A3004 RMK A01 T02900110  RH  033%=      5-min Rain = 0
KQU1 121706Z 14005KT 29/11 A3004 RMK A01 T02920112  RH  033%=      5-min Rain = 0
KQU1 121707Z 13007KT 29/11 A3004 RMK A01 T02940111  RH  032%=      5-min Rain = 0
KQU1 121708Z 13003KT 29/11 A3004 RMK A01 T02940107  RH  031%=      5-min Rain = 0
KQU1 121709Z 14002KT 29/11 A3003 RMK A01 T02940106  RH  031%=      5-min Rain = 0
KQU1 121710Z 18000KT 29/11 A3003 RMK A01 T02940108  RH  032%=      5-min Rain = 0
KQU1 121711Z 13001KT 29/11 A3003 RMK A01 T02940107  RH  031%=      5-min Rain = 0
KQU1 121712Z 15002KT 30/11 A3003 RMK A01 T02960110  RH  032%=      5-min Rain = 0
KQU1 121713Z 14003KT 30/12 A3003 RMK A01 T02980115  RH  032%=      5-min Rain = 0
KQU1 121714Z 11004KT 30/11 A3003 RMK A01 T02990110  RH  031%=      5-min Rain = 0
KQU1 121715Z 10003KT 30/11 A3003 RMK A01 T03000111  RH  031%=      5-min Rain = 0
KQU1 121716Z 11007KT 30/11 A3003 RMK A01 T03000111  RH  031%=      5-min Rain = 0
KQU1 121717Z 12007KT 30/11 A3003 RMK A01 T02980110  RH  031%=      5-min Rain = 0
KQU1 121718Z 12004KT 30/11 A3003 RMK A01 T02960109  RH  031%=      5-min Rain = 0
KQU1 121719Z 12005KT 30/12 A3003 RMK A01 T02960115  RH  033%=      5-min Rain = 0
KQU1 121720Z 13007KT 30/11 A3003 RMK A01 T02970111  RH  032%=      5-min Rain = 0
KQU1 121721Z 10006KT 30/11 A3003 RMK A01 T02970111  RH  032%=      5-min Rain = 0
KQU1 121722Z 11006KT 30/11 A3003 RMK A01 T02960110  RH  032%=      5-min Rain = 0
KQU1 121723Z 09005KT 29/11 A3003 RMK A01 T02940106  RH  031%=      5-min Rain = 0
KQU1 121724Z 08004KT 29/10 A3003 RMK A01 T02920104  RH  031%=      5-min Rain = 0
KQU1 121725Z 11006KT 29/11 A3003 RMK A01 T02910112  RH  033%=      5-min Rain = 0
KQU1 121726Z 11004KT 29/11 A3003 RMK A01 T02920110  RH  032%=      5-min Rain = 0
KQU1 121727Z 12005KT 29/11 A3003 RMK A01 T02930112  RH  033%=      5-min Rain = 0
KQU1 121728Z 11008KT 29/11 A3003 RMK A01 T02930110  RH  032%=      5-min Rain = 0
KQU1 121729Z 11007KT 29/11 A3003 RMK A01 T02930110  RH  032%=      5-min Rain = 0
KQU1 121730Z 11005KT 29/11 A3003 RMK A01 T02930109  RH  032%=      5-min Rain = 0
KQU1 121731Z 10005KT 29/11 A3003 RMK A01 T02930108  RH  032%=      5-min Rain = 0
KQU1 121732Z 07004KT 29/11 A3003 RMK A01 T02920107  RH  032%=      5-min Rain = 0
KQU1 121733Z 04004KT 29/11 A3003 RMK A01 T02920107  RH  032%=      5-min Rain = 0
KQU1 121734Z 04002KT 29/11 A3002 RMK A01 T02910105  RH  031%=      5-min Rain = 0
KQU1 121735Z 09003KT 29/11 A3002 RMK A01 T02910110  RH  033%=      5-min Rain = 0
KQU1 121736Z 12007KT 29/11 A3002 RMK A01 T02920111  RH  033%=      5-min Rain = 0
KQU1 121737Z 15006KT 29/11 A3002 RMK A01 T02930111  RH  032%=      5-min Rain = 0
KQU1 121738Z 13005KT 29/11 A3002 RMK A01 T02940113  RH  033%=      5-min Rain = 0
KQU1 121739Z 14003KT 30/11 A3002 RMK A01 T02950108  RH  031%=      5-min Rain = 0
KQU1 121740Z 13003KT 30/11 A3002 RMK A01 T02950113  RH  032%=      5-min Rain = 0
KQU1 121741Z 16006KT 30/11 A3002 RMK A01 T02960111  RH  032%=      5-min Rain = 0
KQU1 121742Z 16007KT 30/11 A3002 RMK A01 T02970110  RH  032%=      5-min Rain = 0
KQU1 121743Z 16005KT 30/11 A3002 RMK A01 T02960107  RH  031%=      5-min Rain = 0
KQU1 121744Z 16004KT 30/11 A3002 RMK A01 T02950105  RH  031%=      5-min Rain = 0
KQU1 121745Z 15003KT 30/11 A3002 RMK A01 T02950109  RH  032%=      5-min Rain = 0
KQU1 121746Z 18004KT 30/11 A3002 RMK A01 T02970112  RH  032%=      5-min Rain = 0
KQU1 121747Z 14004KT 30/11 A3002 RMK A01 T02980111  RH  031%=      5-min Rain = 0
KQU1 121748Z 14004KT 30/11 A3002 RMK A01 T03000114  RH  032%=      5-min Rain = 0
KQU1 121749Z 12001KT 30/11 A3002 RMK A01 T03020105  RH  030%=      5-min Rain = 0
KQU1 121750Z 04000KT 30/11 A3002 RMK A01 T03020107  RH  030%=      5-min Rain = 0
KQU1 121751Z 05002KT 30/11 A3002 RMK A01 T03030109  RH  030%=      5-min Rain = 0
KQU1 121752Z 09007G12KT 30/12 A3002 RMK A01 T03030116  RH  032%=      5-min Rain = 0
KQU1 121753Z 12005KT 30/12 A3002 RMK A01 T03040119  RH  032%=      5-min Rain = 0
KQU1 121754Z 15004KT 31/11 A3002 RMK A01 T03060111  RH  030%=      5-min Rain = 0
KQU1 121755Z 13003KT 31/11 A3002 RMK A01 T03050109  RH  030%=      5-min Rain = 0
KQU1 121756Z 15005KT 31/11 A3002 RMK A01 T03050111  RH  030%=      5-min Rain = 0
KQU1 121757Z 15006KT 30/11 A3002 RMK A01 T03040114  RH  031%=      5-min Rain = 0
KQU1 121758Z 16005KT 30/11 A3002 RMK A01 T03030111  RH  031%=      5-min Rain = 0
KQU1 121759Z 18003KT 30/11 A3002 RMK A01 T03020111  RH  031%=      5-min Rain = 0
KQU1 121800Z 19002KT 30/11 A3002 RMK A01 T03010107  RH  030%=      5-min Rain = 0
KQU1 121801Z 12002KT 30/11 A3002 RMK A01 T03010109  RH  030%=      5-min Rain = 0
KQU1 121802Z 12001KT 30/11 A3002 RMK A01 T03020108  RH  030%=      5-min Rain = 0
KQU1 121803Z 33000KT 30/11 A3001 RMK A01 T03020109  RH  030%=      5-min Rain = 0
KQU1 121804Z 08005KT 30/11 A3001 RMK A01 T03030112  RH  031%=      5-min Rain = 0
KQU1 121805Z 08006KT 30/11 A3001 RMK A01 T03020111  RH  031%=      5-min Rain = 0
KQU1 121806Z 08005KT 30/11 A3001 RMK A01 T03010110  RH  031%=      5-min Rain = 0
KQU1 121807Z 09005KT 30/11 A3001 RMK A01 T03000108  RH  031%=      5-min Rain = 0
KQU1 121808Z 10006KT 30/12 A3001 RMK A01 T02990115  RH  032%=      5-min Rain = 0
KQU1 121809Z 12008KT 30/11 A3001 RMK A01 T03000113  RH  031%=      5-min Rain = 0
KQU1 121810Z 12005KT 30/12 A3001 RMK A01 T03000116  RH  032%=      5-min Rain = 0
KQU1 121811Z 11007KT 30/12 A3001 RMK A01 T03020117  RH  032%=      5-min Rain = 0
KQU1 121812Z 12006KT 30/11 A3001 RMK A01 T03020110  RH  031%=      5-min Rain = 0
KQU1 121813Z 12006KT 30/11 A3001 RMK A01 T03020112  RH  031%=      5-min Rain = 0
KQU1 121814Z 11003KT 30/11 A3001 RMK A01 T03010110  RH  031%=      5-min Rain = 0
KQU1 121815Z 10005KT 30/12 A3001 RMK A01 T03020116  RH  032%=      5-min Rain = 0
KQU1 121816Z 09004KT 30/11 A3001 RMK A01 T03020112  RH  031%=      5-min Rain = 0
KQU1 121817Z 11003KT 30/12 A3001 RMK A01 T03030115  RH  031%=      5-min Rain = 0
KQU1 121818Z 07003KT 30/11 A3001 RMK A01 T03040114  RH  031%=      5-min Rain = 0
KQU1 121819Z 08003KT 31/11 A3001 RMK A01 T03050111  RH  030%=      5-min Rain = 0
KQU1 121820Z 10002KT 31/11 A3001 RMK A01 T03050111  RH  030%=      5-min Rain = 0
KQU1 121821Z 09001KT 31/11 A3001 RMK A01 T03050110  RH  030%=      5-min Rain = 0
KQU1 121822Z 01001KT 31/11 A3001 RMK A01 T03050107  RH  029%=      5-min Rain = 0
KQU1 121823Z 04002KT 30/11 A3001 RMK A01 T03040110  RH  030%=      5-min Rain = 0
KQU1 121824Z 08002KT 31/11 A3001 RMK A01 T03050111  RH  030%=      5-min Rain = 0
KQU1 121825Z 09003KT 31/11 A3001 RMK A01 T03060110  RH  030%=      5-min Rain = 0
KQU1 121826Z 09005KT 31/11 A3001 RMK A01 T03060110  RH  030%=      5-min Rain = 0
KQU1 121827Z 08003KT 31/11 A3001 RMK A01 T03060112  RH  030%=      5-min Rain = 0
KQU1 121828Z 05002KT 31/11 A3001 RMK A01 T03060108  RH  029%=      5-min Rain = 0
KQU1 121829Z 02001KT 31/11 A3001 RMK A01 T03060108  RH  030%=      5-min Rain = 0
KQU1 121830Z 29001KT 30/10 A3001 RMK A01 T03040104  RH  029%=      5-min Rain = 0
KQU1 121831Z 25004KT 30/11 A3001 RMK A01 T03030107  RH  030%=      5-min Rain = 0
KQU1 121832Z 23003KT 30/11 A3001 RMK A01 T03030108  RH  030%=      5-min Rain = 0
KQU1 121833Z 26002KT 30/11 A3001 RMK A01 T03030109  RH  030%=      5-min Rain = 0
KQU1 121834Z 26001KT 30/11 A30 RMK A01 T03040110  RH  030%=      5-min Rain = 0
KQU1 121835Z 12002KT 31/11 A30 RMK A01 T03060111  RH  030%=      5-min Rain = 0
KQU1 121836Z 13003KT 31/11 A30 RMK A01 T03070108  RH  029%=      5-min Rain = 0
KQU1 121837Z 10003KT 31/11 A30 RMK A01 T03080112  RH  030%=      5-min Rain = 0
KQU1 121838Z 10004KT 31/11 A30 RMK A01 T03080113  RH  030%=      5-min Rain = 0
KQU1 121839Z 12007KT 31/12 A30 RMK A01 T03090117  RH  031%=      5-min Rain = 0
KQU1 121840Z 12005KT 31/11 A30 RMK A01 T03080107  RH  029%=      5-min Rain = 0
KQU1 121841Z 12004KT 31/11 A30 RMK A01 T03060110  RH  030%=      5-min Rain = 0
KQU1 121842Z 11003KT 31/11 A30 RMK A01 T03060110  RH  030%=      5-min Rain = 0
KQU1 121843Z 11003KT 31/11 A30 RMK A01 T03070113  RH  030%=      5-min Rain = 0
KQU1 121844Z 10003KT 31/11 A30 RMK A01 T03080112  RH  030%=      5-min Rain = 0
KQU1 121845Z 08002KT 31/11 A30 RMK A01 T03080112  RH  030%=      5-min Rain = 0
KQU1 121846Z 10007KT 31/11 A30 RMK A01 T03090112  RH  030%=      5-min Rain = 0
KQU1 121847Z 13007KT 31/12 A30 RMK A01 T03080115  RH  030%=      5-min Rain = 0
KQU1 121848Z 10007KT 31/11 A30 RMK A01 T03080114  RH  030%=      5-min Rain = 0
KQU1 121849Z 09005KT 31/11 A30 RMK A01 T03080113  RH  030%=      5-min Rain = 0
KQU1 121850Z 08004KT 31/11 A30 RMK A01 T03070111  RH  030%=      5-min Rain = 0
KQU1 121851Z 11005KT 31/12 A30 RMK A01 T03080116  RH  031%=      5-min Rain = 0
KQU1 121852Z 13002KT 31/11 A30 RMK A01 T03080112  RH  030%=      5-min Rain = 0
KQU1 121853Z 06002KT 31/11 A30 RMK A01 T03080111  RH  030%=      5-min Rain = 0
KQU1 121854Z 13002KT 31/12 A30 RMK A01 T03090116  RH  030%=      5-min Rain = 0
KQU1 121855Z 08004KT 31/11 A30 RMK A01 T03100114  RH  030%=      5-min Rain = 0
KQU1 121856Z 11001KT 31/12 A30 RMK A01 T03110118  RH  031%=      5-min Rain = 0
KQU1 121857Z 08004KT 31/12 A30 RMK A01 T03120119  RH  031%=      5-min Rain = 0
KQU1 121858Z 11005KT 31/12 A30 RMK A01 T03120122  RH  031%=      5-min Rain = 0
KQU1 121859Z 12006KT 31/12 A30 RMK A01 T03130116  RH  030%=      5-min Rain = 0
KQU1 121900Z 10005KT 31/12 A30 RMK A01 T03120118  RH  030%=      5-min Rain = 0
KQU1 121901Z 12004KT 31/12 A2999 RMK A01 T03120119  RH  031%=      5-min Rain = 0
KQU1 121902Z 09005KT 31/12 A2999 RMK A01 T03120117  RH  030%=      5-min Rain = 0
KQU1 121903Z 08006KT 31/12 A2999 RMK A01 T03110116  RH  030%=      5-min Rain = 0
KQU1 121904Z 09007KT 31/12 A2999 RMK A01 T03100118  RH  031%=      5-min Rain = 0
KQU1 121905Z 10009KT 31/12 A2999 RMK A01 T03100117  RH  031%=      5-min Rain = 0
KQU1 121906Z 11007KT 31/12 A2999 RMK A01 T03100120  RH  031%=      5-min Rain = 0
KQU1 121907Z 10008KT 31/12 A2999 RMK A01 T03100117  RH  031%=      5-min Rain = 0
KQU1 121908Z 08007KT 31/12 A2999 RMK A01 T03100116  RH  030%=      5-min Rain = 0
KQU1 121909Z 10005KT 31/12 A2999 RMK A01 T03100118  RH  031%=      5-min Rain = 0
KQU1 121910Z 11007KT 31/11 A2999 RMK A01 T03110114  RH  030%=      5-min Rain = 0
KQU1 121911Z 08004KT 31/12 A2999 RMK A01 T03100115  RH  030%=      5-min Rain = 0
KQU1 121912Z 09005KT 31/11 A2999 RMK A01 T03100114  RH  030%=      5-min Rain = 0
KQU1 121913Z 11002KT 31/12 A2999 RMK A01 T03100118  RH  031%=      5-min Rain = 0
KQU1 121914Z 14002KT 31/12 A2999 RMK A01 T03120117  RH  030%=      5-min Rain = 0
KQU1 121915Z 15005KT 31/12 A2999 RMK A01 T03140119  RH  030%=      5-min Rain = 0
KQU1 121916Z 11004KT 32/12 A2999 RMK A01 T03150115  RH  029%=      5-min Rain = 0
KQU1 121917Z 10004KT 31/11 A2999 RMK A01 T03140113  RH  029%=      5-min Rain = 0
KQU1 121918Z 09005KT 31/12 A2999 RMK A01 T03130115  RH  030%=      5-min Rain = 0
KQU1 121919Z 08005KT 31/12 A2999 RMK A01 T03130115  RH  030%=      5-min Rain = 0
KQU1 121920Z 09009KT 31/12 A2998 RMK A01 T03130118  RH  030%=      5-min Rain = 0
KQU1 121921Z 12010KT 31/12 A2998 RMK A01 T03130122  RH  031%=      5-min Rain = 0
KQU1 121922Z 11009KT 31/12 A2998 RMK A01 T03130119  RH  031%=      5-min Rain = 0
KQU1 121923Z 13008KT 31/12 A2998 RMK A01 T03120120  RH  031%=      5-min Rain = 0
KQU1 121924Z 14006KT 31/12 A2998 RMK A01 T03120122  RH  031%=      5-min Rain = 0
KQU1 121925Z 12005KT 31/12 A2998 RMK A01 T03140123  RH  031%=      5-min Rain = 0
KQU1 121926Z 11008KT 31/12 A2998 RMK A01 T03140123  RH  031%=      5-min Rain = 0
KQU1 121927Z 09011KT 31/12 A2998 RMK A01 T03140118  RH  030%=      5-min Rain = 0
KQU1 121928Z 10010KT 31/12 A2998 RMK A01 T03130119  RH  030%=      5-min Rain = 0
KQU1 121929Z 08007KT 31/12 A2998 RMK A01 T03110118  RH  031%=      5-min Rain = 0
KQU1 121930Z 07007KT 31/12 A2998 RMK A01 T03100115  RH  030%=      5-min Rain = 0
KQU1 121931Z 08006KT 31/11 A2998 RMK A01 T03080114  RH  030%=      5-min Rain = 0
KQU1 121932Z 09007KT 31/12 A2998 RMK A01 T03080119  RH  031%=      5-min Rain = 0
KQU1 121933Z 08006KT 31/12 A2998 RMK A01 T03090118  RH  031%=      5-min Rain = 0
KQU1 121934Z 08003KT 31/12 A2998 RMK A01 T03090116  RH  030%=      5-min Rain = 0
KQU1 121935Z 10000KT 31/12 A2998 RMK A01 T03100117  RH  031%=      5-min Rain = 0
KQU1 121936Z 12004KT 31/12 A2998 RMK A01 T03110116  RH  030%=      5-min Rain = 0
KQU1 121937Z 11001KT 31/11 A2997 RMK A01 T03120114  RH  030%=      5-min Rain = 0
KQU1 121938Z 11005KT 31/12 A2998 RMK A01 T03120121  RH  031%=      5-min Rain = 0
KQU1 121939Z 14007KT 31/13 A2997 RMK A01 T03140125  RH  031%=      5-min Rain = 0
KQU1 121940Z 12008KT 32/12 A2998 RMK A01 T03150124  RH  031%=      5-min Rain = 0
KQU1 121941Z 13004KT 32/12 A2997 RMK A01 T03150121  RH  030%=      5-min Rain = 0
KQU1 121942Z 13007KT 32/12 A2997 RMK A01 T03150121  RH  031%=      5-min Rain = 0
KQU1 121943Z 14007KT 32/12 A2997 RMK A01 T03150122  RH  031%=      5-min Rain = 0
KQU1 121944Z 13007KT 32/12 A2997 RMK A01 T03150122  RH  031%=      5-min Rain = 0
KQU1 121945Z 11006KT 32/12 A2997 RMK A01 T03160122  RH  031%=      5-min Rain = 0
KQU1 121946Z 11008KT 32/12 A2997 RMK A01 T03150123  RH  031%=      5-min Rain = 0
KQU1 121947Z 12009KT 32/12 A2997 RMK A01 T03150123  RH  031%=      5-min Rain = 0
KQU1 121948Z 11009KT 32/12 A2997 RMK A01 T03150122  RH  031%=      5-min Rain = 0
KQU1 121949Z 10007KT 32/13 A2997 RMK A01 T03150126  RH  031%=      5-min Rain = 0
KQU1 121950Z 11010KT 32/13 A2997 RMK A01 T03170126  RH  031%=      5-min Rain = 0
KQU1 121951Z 12010KT 32/12 A2997 RMK A01 T03170122  RH  030%=      5-min Rain = 0
KQU1 121952Z 11009KT 32/12 A2997 RMK A01 T03160123  RH  031%=      5-min Rain = 0
KQU1 121953Z 11008KT 32/12 A2997 RMK A01 T03150122  RH  031%=      5-min Rain = 0
KQU1 121954Z 11007KT 32/12 A2997 RMK A01 T03150119  RH  030%=      5-min Rain = 0
KQU1 121955Z 11010KT 31/12 A2997 RMK A01 T03130120  RH  031%=      5-min Rain = 0
KQU1 121956Z 12009KT 31/12 A2997 RMK A01 T03130120  RH  031%=      5-min Rain = 0
KQU1 121957Z 11009KT 31/12 A2997 RMK A01 T03120119  RH  031%=      5-min Rain = 0
KQU1 121958Z 11006KT 31/12 A2997 RMK A01 T03110118  RH  031%=      5-min Rain = 0
KQU1 121959Z 10006KT 31/12 A2997 RMK A01 T03100117  RH  031%=      5-min Rain = 0
KQU1 122000Z 09006KT 31/12 A2997 RMK A01 T03100118  RH  031%=      5-min Rain = 0
KQU1 122001Z 06005KT 31/12 A2996 RMK A01 T03100115  RH  030%=      5-min Rain = 0
KQU1 122002Z 02003KT 31/11 A2996 RMK A01 T03090114  RH  030%=      5-min Rain = 0
KQU1 122003Z 35003KT 31/11 A2996 RMK A01 T03080113  RH  030%=      5-min Rain = 0
KQU1 122004Z 02004KT 31/12 A2996 RMK A01 T03080116  RH  031%=      5-min Rain = 0
KQU1 122005Z 09006KT 31/12 A2996 RMK A01 T03090120  RH  031%=      5-min Rain = 0
KQU1 122006Z 10009KT 31/12 A2996 RMK A01 T03110118  RH  031%=      5-min Rain = 0
KQU1 122007Z 10008KT 31/12 A2996 RMK A01 T03110119  RH  031%=      5-min Rain = 0
KQU1 122008Z 09008KT 31/12 A2996 RMK A01 T03120123  RH  031%=      5-min Rain = 0
KQU1 122009Z 09009KT 31/12 A2996 RMK A01 T03130120  RH  031%=      5-min Rain = 0
KQU1 122010Z 08007KT 31/12 A2996 RMK A01 T03140122  RH  031%=      5-min Rain = 0
KQU1 122011Z 09008KT 32/12 A2996 RMK A01 T03150122  RH  031%=      5-min Rain = 0
KQU1 122012Z 10007KT 32/12 A2996 RMK A01 T03150117  RH  030%=      5-min Rain = 0
KQU1 122013Z 09005KT 31/12 A2996 RMK A01 T03130119  RH  030%=      5-min Rain = 0
KQU1 122014Z 13004KT 31/12 A2996 RMK A01 T03140122  RH  031%=      5-min Rain = 0
KQU1 122015Z 12006KT 32/12 A2996 RMK A01 T03150124  RH  031%=      5-min Rain = 0
KQU1 122016Z 09009KT 32/12 A2996 RMK A01 T03160123  RH  031%=      5-min Rain = 0
KQU1 122017Z 10009KT 32/12 A2996 RMK A01 T03160119  RH  030%=      5-min Rain = 0
KQU1 122018Z 11007KT 32/12 A2995 RMK A01 T03150120  RH  030%=      5-min Rain = 0
KQU1 122019Z 09006KT 32/12 A2995 RMK A01 T03150124  RH  031%=      5-min Rain = 0
KQU1 122020Z 07009KT 32/12 A2995 RMK A01 T03170122  RH  030%=      5-min Rain = 0
KQU1 122021Z 08008KT 32/12 A2995 RMK A01 T03170118  RH  030%=      5-min Rain = 0
KQU1 122022Z 06005KT 32/12 A2995 RMK A01 T03150121  RH  030%=      5-min Rain = 0
KQU1 122023Z 07006KT 32/12 A2995 RMK A01 T03150121  RH  030%=      5-min Rain = 0
KQU1 122024Z 07010KT 32/12 A2995 RMK A01 T03160119  RH  030%=      5-min Rain = 0
KQU1 122025Z 07006KT 31/12 A2995 RMK A01 T03140117  RH  030%=      5-min Rain = 0
KQU1 122026Z 06004KT 31/12 A2995 RMK A01 T03140119  RH  030%=      5-min Rain = 0
KQU1 122027Z 09004KT 32/12 A2995 RMK A01 T03150120  RH  030%=      5-min Rain = 0
KQU1 122028Z 12003KT 32/12 A2995 RMK A01 T03160121  RH  030%=      5-min Rain = 0
KQU1 122029Z 09005KT 32/12 A2995 RMK A01 T03170123  RH  030%=      5-min Rain = 0
KQU1 122030Z 12007KT 32/12 A2995 RMK A01 T03180121  RH  030%=      5-min Rain = 0
KQU1 122031Z 12008KT 32/13 A2995 RMK A01 T03180125  RH  031%=      5-min Rain = 0
KQU1 122032Z 09009KT 32/12 A2995 RMK A01 T03180122  RH  030%=      5-min Rain = 0
KQU1 122033Z 08009KT 32/12 A2995 RMK A01 T03170118  RH  030%=      5-min Rain = 0
KQU1 122034Z 09006KT 32/12 A2995 RMK A01 T03160121  RH  030%=      5-min Rain = 0
KQU1 122035Z 09008KT 32/13 A2995 RMK A01 T03170125  RH  031%=      5-min Rain = 0
KQU1 122036Z 08008KT 32/12 A2995 RMK A01 T03170117  RH  029%=      5-min Rain = 0
KQU1 122037Z 10006KT 32/12 A2995 RMK A01 T03160118  RH  030%=      5-min Rain = 0
KQU1 122038Z 10006KT 32/12 A2995 RMK A01 T03150117  RH  030%=      5-min Rain = 0
KQU1 122039Z 08005KT 31/12 A2995 RMK A01 T03140117  RH  030%=      5-min Rain = 0
KQU1 122040Z 07002KT 31/12 A2995 RMK A01 T03140117  RH  030%=      5-min Rain = 0
KQU1 122041Z 09007KT 32/12 A2995 RMK A01 T03150121  RH  030%=      5-min Rain = 0
KQU1 122042Z 09007KT 32/12 A2995 RMK A01 T03150117  RH  030%=      5-min Rain = 0
KQU1 122043Z 09005KT 32/12 A2995 RMK A01 T03150120  RH  030%=      5-min Rain = 0
KQU1 122044Z 09007KT 32/12 A2995 RMK A01 T03150120  RH  030%=      5-min Rain = 0
KQU1 122045Z 09007KT 32/12 A2994 RMK A01 T03160121  RH  030%=      5-min Rain = 0
KQU1 122046Z 08008KT 32/12 A2994 RMK A01 T03160121  RH  030%=      5-min Rain = 0
KQU1 122047Z 09007KT 32/12 A2994 RMK A01 T03160119  RH  030%=      5-min Rain = 0
KQU1 122048Z 10007KT 32/12 A2994 RMK A01 T03160123  RH  031%=      5-min Rain = 0
KQU1 122049Z 08006KT 32/12 A2994 RMK A01 T03170119  RH  030%=      5-min Rain = 0
KQU1 122050Z 05007KT 32/12 A2994 RMK A01 T03180123  RH  031%=      5-min Rain = 0
KQU1 122051Z 06005KT 32/12 A2994 RMK A01 T03170119  RH  030%=      5-min Rain = 0
KQU1 122052Z 05004KT 32/12 A2994 RMK A01 T03160120  RH  030%=      5-min Rain = 0
KQU1 122053Z 09006KT 31/12 A2994 RMK A01 T03140123  RH  031%=      5-min Rain = 0
KQU1 122054Z 10007KT 31/12 A2994 RMK A01 T03140120  RH  030%=      5-min Rain = 0
KQU1 122055Z 11006KT 32/12 A2994 RMK A01 T03150124  RH  031%=      5-min Rain = 0
KQU1 122056Z 09004KT 32/12 A2994 RMK A01 T03160118  RH  030%=      5-min Rain = 0
KQU1 122057Z 10005KT 32/12 A2994 RMK A01 T03160119  RH  030%=      5-min Rain = 0
KQU1 122058Z 10010KT 32/12 A2994 RMK A01 T03170121  RH  030%=      5-min Rain = 0
KQU1 122059Z 09009KT 32/12 A2994 RMK A01 T03160119  RH  030%=      5-min Rain = 0
KQU1 122100Z 08008KT 32/12 A2994 RMK A01 T03150117  RH  030%=      5-min Rain = 0
KQU1 122101Z 08007KT 31/12 A2994 RMK A01 T03140118  RH  030%=      5-min Rain = 0
KQU1 122102Z 08004KT 31/12 A2994 RMK A01 T03130118  RH  030%=      5-min Rain = 0
KQU1 122103Z 08004KT 31/12 A2994 RMK A01 T03140118  RH  030%=      5-min Rain = 0
KQU1 122104Z 09007KT 31/12 A2994 RMK A01 T03140120  RH  031%=      5-min Rain = 0
KQU1 122105Z 10010KT 32/12 A2994 RMK A01 T03150122  RH  031%=      5-min Rain = 0
KQU1 122106Z 11010KT 32/12 A2994 RMK A01 T03160124  RH  031%=      5-min Rain = 0
KQU1 122107Z 11009KT 32/12 A2994 RMK A01 T03170120  RH  030%=      5-min Rain = 0
KQU1 122108Z 11007KT 32/12 A2994 RMK A01 T03170120  RH  030%=      5-min Rain = 0
KQU1 122109Z 11008KT 32/12 A2994 RMK A01 T03160119  RH  030%=      5-min Rain = 0
KQU1 122110Z 12007KT 32/12 A2994 RMK A01 T03160121  RH  030%=      5-min Rain = 0
KQU1 122111Z 08005KT 32/12 A2994 RMK A01 T03160122  RH  030%=      5-min Rain = 0
KQU1 122112Z 09004KT 32/12 A2994 RMK A01 T03170118  RH  030%=      5-min Rain = 0
KQU1 122113Z 11005KT 32/12 A2993 RMK A01 T03170119  RH  030%=      5-min Rain = 0
KQU1 122114Z 10005KT 32/12 A2993 RMK A01 T03170119  RH  030%=      5-min Rain = 0
KQU1 122115Z 11007KT 32/12 A2993 RMK A01 T03170119  RH  030%=      5-min Rain = 0
KQU1 122116Z 11008KT 32/12 A2993 RMK A01 T03160121  RH  030%=      5-min Rain = 0
KQU1 122117Z 11008KT 32/12 A2993 RMK A01 T03170124  RH  031%=      5-min Rain = 0
KQU1 122118Z 10007KT 32/12 A2993 RMK A01 T03180122  RH  030%=      5-min Rain = 0
KQU1 122119Z 10004KT 32/12 A2993 RMK A01 T03180118  RH  030%=      5-min Rain = 0
KQU1 122120Z 09004KT 32/12 A2993 RMK A01 T03180121  RH  030%=      5-min Rain = 0
KQU1 122121Z 10006KT 32/12 A2993 RMK A01 T03180121  RH  030%=      5-min Rain = 0
KQU1 122122Z 10007KT 32/12 A2993 RMK A01 T03180121  RH  030%=      5-min Rain = 0
KQU1 122123Z 08007KT 32/12 A2993 RMK A01 T03180119  RH  030%=      5-min Rain = 0
KQU1 122124Z 08004KT 32/12 A2993 RMK A01 T03180120  RH  030%=      5-min Rain = 0
KQU1 122125Z 09007KT 32/12 A2993 RMK A01 T03180120  RH  030%=      5-min Rain = 0
KQU1 122126Z 09008KT 32/12 A2993 RMK A01 T03170118  RH  029%=      5-min Rain = 0
KQU1 122127Z 09007KT 32/12 A2993 RMK A01 T03160121  RH  030%=      5-min Rain = 0
KQU1 122128Z 09010KT 32/12 A2993 RMK A01 T03170120  RH  030%=      5-min Rain = 0
KQU1 122129Z 09007KT 32/12 A2993 RMK A01 T03160118  RH  030%=      5-min Rain = 0
KQU1 122130Z 11008KT 32/12 A2993 RMK A01 T03160123  RH  031%=      5-min Rain = 0
KQU1 122131Z 12006KT 32/12 A2993 RMK A01 T03160118  RH  030%=      5-min Rain = 0
KQU1 122132Z 13007KT 32/12 A2993 RMK A01 T03160122  RH  030%=      5-min Rain = 0
KQU1 122133Z 12009KT 32/12 A2993 RMK A01 T03170121  RH  030%=      5-min Rain = 0
KQU1 122134Z 12007KT 32/12 A2993 RMK A01 T03170121  RH  030%=      5-min Rain = 0
KQU1 122135Z 12009KT 32/12 A2993 RMK A01 T03180120  RH  030%=      5-min Rain = 0
KQU1 122136Z 11009KT 32/12 A2993 RMK A01 T03170118  RH  030%=      5-min Rain = 0
KQU1 122137Z 13008KT 32/12 A2993 RMK A01 T03160117  RH  030%=      5-min Rain = 0
KQU1 122138Z 13007KT 32/12 A2993 RMK A01 T03150119  RH  030%=      5-min Rain = 0
KQU1 122139Z 13007KT 32/12 A2993 RMK A01 T03160120  RH  030%=      5-min Rain = 0
KQU1 122140Z 11004G11KT 32/12 A2993 RMK A01 T03170117  RH  029%=      5-min Rain = 0
KQU1 122141Z 11010KT 32/12 A2993 RMK A01 T03170120  RH  030%=      5-min Rain = 0
KQU1 122142Z 09010KT 32/12 A2993 RMK A01 T03170122  RH  030%=      5-min Rain = 0
KQU1 122143Z 07009KT 32/12 A2993 RMK A01 T03180122  RH  030%=      5-min Rain = 0
KQU1 122144Z 07007KT 32/12 A2993 RMK A01 T03180119  RH  030%=      5-min Rain = 0
KQU1 122145Z 07006KT 32/12 A2993 RMK A01 T03190120  RH  030%=      5-min Rain = 0
KQU1 122146Z 06008KT 32/12 A2993 RMK A01 T03190117  RH  029%=      5-min Rain = 0
KQU1 122147Z 08009KT 32/12 A2993 RMK A01 T03190118  RH  029%=      5-min Rain = 0
KQU1 122148Z 09009KT 32/12 A2993 RMK A01 T03180119  RH  030%=      5-min Rain = 0
KQU1 122149Z 09008KT 32/12 A2993 RMK A01 T03180120  RH  030%=      5-min Rain = 0
KQU1 122150Z 09008KT 32/12 A2993 RMK A01 T03170120  RH  030%=      5-min Rain = 0
KQU1 122151Z 10008KT 32/12 A2993 RMK A01 T03160119  RH  030%=      5-min Rain = 0
KQU1 122152Z 12008KT 32/12 A2993 RMK A01 T03150120  RH  030%=      5-min Rain = 0
KQU1 122153Z 13008KT 32/12 A2992 RMK A01 T03150119  RH  030%=      5-min Rain = 0
KQU1 122154Z 13006KT 32/12 A2992 RMK A01 T03150120  RH  030%=      5-min Rain = 0
KQU1 122155Z 13008KT 32/12 A2992 RMK A01 T03150123  RH  031%=      5-min Rain = 0
KQU1 122156Z 10009KT 32/12 A2992 RMK A01 T03160124  RH  031%=      5-min Rain = 0
KQU1 122157Z 09008KT 32/12 A2992 RMK A01 T03160121  RH  030%=      5-min Rain = 0
KQU1 122158Z 09008KT 32/12 A2992 RMK A01 T03160120  RH  030%=      5-min Rain = 0
KQU1 122159Z 10010KT 32/12 A2992 RMK A01 T03170121  RH  030%=      5-min Rain = 0
KQU1 122200Z 10011KT 32/12 A2992 RMK A01 T03160119  RH  030%=      5-min Rain = 0
KQU1 122201Z 10009KT 32/12 A2993 RMK A01 T03150119  RH  030%=      5-min Rain = 0
KQU1 122202Z 09008KT 31/12 A2993 RMK A01 T03140121  RH  031%=      5-min Rain = 0
KQU1 122203Z 09006KT 31/12 A2992 RMK A01 T03140115  RH  030%=      5-min Rain = 0
KQU1 122204Z 08004KT 31/12 A2992 RMK A01 T03130120  RH  031%=      5-min Rain = 0
KQU1 122205Z 06005KT 32/12 A2992 RMK A01 T03150122  RH  031%=      5-min Rain = 0
KQU1 122206Z 08006KT 32/12 A2992 RMK A01 T03160121  RH  030%=      5-min Rain = 0
KQU1 122207Z 10008KT 32/12 A2992 RMK A01 T03160121  RH  030%=      5-min Rain = 0
KQU1 122208Z 11007KT 32/13 A2992 RMK A01 T03170125  RH  031%=      5-min Rain = 0
KQU1 122209Z 12005KT 32/13 A2992 RMK A01 T03180125  RH  031%=      5-min Rain = 0
KQU1 122210Z 10004KT 32/12 A2992 RMK A01 T03190123  RH  030%=      5-min Rain = 0
KQU1 122211Z 09005KT 32/12 A2992 RMK A01 T03190124  RH  030%=      5-min Rain = 0
KQU1 122212Z 10007KT 32/12 A2992 RMK A01 T03190118  RH  029%=      5-min Rain = 0
KQU1 122213Z 11006KT 32/12 A2992 RMK A01 T03180119  RH  030%=      5-min Rain = 0
KQU1 122214Z 10006KT 32/12 A2992 RMK A01 T03170120  RH  030%=      5-min Rain = 0
KQU1 122215Z 12006KT 32/12 A2992 RMK A01 T03160124  RH  031%=      5-min Rain = 0
KQU1 122216Z 09006KT 32/13 A2992 RMK A01 T03170125  RH  031%=      5-min Rain = 0
KQU1 122217Z 08008KT 32/12 A2992 RMK A01 T03170120  RH  030%=      5-min Rain = 0
KQU1 122218Z 07006KT 32/12 A2992 RMK A01 T03170120  RH  030%=      5-min Rain = 0
KQU1 122219Z 07006KT 32/12 A2992 RMK A01 T03170120  RH  030%=      5-min Rain = 0
KQU1 122220Z 09007KT 32/12 A2992 RMK A01 T03170122  RH  030%=      5-min Rain = 0
KQU1 122221Z 10008KT 32/12 A2992 RMK A01 T03160120  RH  030%=      5-min Rain = 0
KQU1 122222Z 09008KT 32/12 A2992 RMK A01 T03150122  RH  031%=      5-min Rain = 0
KQU1 122223Z 09009KT 32/12 A2992 RMK A01 T03150122  RH  031%=      5-min Rain = 0
KQU1 122224Z 09008KT 31/12 A2992 RMK A01 T03140122  RH  031%=      5-min Rain = 0
KQU1 122225Z 07008KT 31/12 A2992 RMK A01 T03140123  RH  031%=      5-min Rain = 0
KQU1 122226Z 07007KT 31/12 A2992 RMK A01 T03140119  RH  030%=      5-min Rain = 0
KQU1 122227Z 08007KT 31/12 A2992 RMK A01 T03130119  RH  030%=      5-min Rain = 0
KQU1 122228Z 09008KT 31/12 A2992 RMK A01 T03130121  RH  031%=      5-min Rain = 0
KQU1 122229Z 10007KT 31/12 A2992 RMK A01 T03130123  RH  031%=      5-min Rain = 0
KQU1 122230Z 09008KT 31/12 A2992 RMK A01 T03140123  RH  031%=      5-min Rain = 0
KQU1 122231Z 09009KT 31/12 A2992 RMK A01 T03140120  RH  030%=      5-min Rain = 0
KQU1 122232Z 08007KT 31/12 A2992 RMK A01 T03140121  RH  031%=      5-min Rain = 0
KQU1 122233Z 09008KT 31/12 A2992 RMK A01 T03140123  RH  031%=      5-min Rain = 0
KQU1 122234Z 09006KT 32/12 A2992 RMK A01 T03150123  RH  031%=      5-min Rain = 0
KQU1 122235Z 11007KT 32/12 A2992 RMK A01 T03150122  RH  031%=      5-min Rain = 0
KQU1 122236Z 11005KT 31/12 A2992 RMK A01 T03140120  RH  030%=      5-min Rain = 0
KQU1 122237Z 11006KT 31/12 A2992 RMK A01 T03140120  RH  031%=      5-min Rain = 0
KQU1 122238Z 10006KT 31/12 A2992 RMK A01 T03140122  RH  031%=      5-min Rain = 0
KQU1 122239Z 10005KT 31/12 A2992 RMK A01 T03130120  RH  031%=      5-min Rain = 0
KQU1 122240Z 08006KT 31/12 A2992 RMK A01 T03140121  RH  031%=      5-min Rain = 0
KQU1 122241Z 09005KT 31/12 A2992 RMK A01 T03140122  RH  031%=      5-min Rain = 0
KQU1 122242Z 10006KT 31/12 A2992 RMK A01 T03140121  RH  031%=      5-min Rain = 0
KQU1 122243Z 09009KT 31/12 A2992 RMK A01 T03140124  RH  031%=      5-min Rain = 0
KQU1 122244Z 09010KT 31/12 A2992 RMK A01 T03130122  RH  031%=      5-min Rain = 0
KQU1 122245Z 09009KT 31/12 A2992 RMK A01 T03120118  RH  030%=      5-min Rain = 0
KQU1 122246Z 09008KT 31/12 A2992 RMK A01 T03110121  RH  031%=      5-min Rain = 0
KQU1 122247Z 08010KT 31/12 A2992 RMK A01 T03100119  RH  031%=      5-min Rain = 0
KQU1 122248Z 08009KT 31/12 A2992 RMK A01 T03100120  RH  031%=      5-min Rain = 0
KQU1 122249Z 07009KT 31/12 A2992 RMK A01 T03100118  RH  031%=      5-min Rain = 0
KQU1 122250Z 09008KT 31/12 A2992 RMK A01 T03100121  RH  031%=      5-min Rain = 0
KQU1 122251Z 10009KT 31/12 A2992 RMK A01 T03100121  RH  031%=      5-min Rain = 0
KQU1 122252Z 09008KT 31/12 A2992 RMK A01 T03110120  RH  031%=      5-min Rain = 0
KQU1 122253Z 09008KT 31/12 A2992 RMK A01 T03100116  RH  031%=      5-min Rain = 0
KQU1 122254Z 08009KT 31/12 A2992 RMK A01 T03080117  RH  031%=      5-min Rain = 0
KQU1 122255Z 09008KT 31/12 A2992 RMK A01 T03080116  RH  031%=      5-min Rain = 0
KQU1 122256Z 11010KT 31/12 A2992 RMK A01 T03070117  RH  031%=      5-min Rain = 0
KQU1 122257Z 10008KT 31/12 A2992 RMK A01 T03070118  RH  031%=      5-min Rain = 0
KQU1 122258Z 08007KT 31/12 A2992 RMK A01 T03070121  RH  032%=      5-min Rain = 0
KQU1 122259Z 08007KT 31/12 A2992 RMK A01 T03080118  RH  031%=      5-min Rain = 0
KQU1 122300Z 09008KT 31/12 A2992 RMK A01 T03080120  RH  031%=      5-min Rain = 0
KQU1 122301Z 09010KT 31/12 A2992 RMK A01 T03080120  RH  031%=      5-min Rain = 0
KQU1 122302Z 09010KT 31/12 A2992 RMK A01 T03080118  RH  031%=      5-min Rain = 0
KQU1 122303Z 09009KT 31/12 A2992 RMK A01 T03070116  RH  031%=      5-min Rain = 0
KQU1 122304Z 09007KT 31/12 A2992 RMK A01 T03060116  RH  031%=      5-min Rain = 0
KQU1 122305Z 11006KT 31/12 A2992 RMK A01 T03060118  RH  032%=      5-min Rain = 0
KQU1 122306Z 11006KT 31/12 A2992 RMK A01 T03060118  RH  031%=      5-min Rain = 0
KQU1 122307Z 09006KT 31/12 A2992 RMK A01 T03060119  RH  032%=      5-min Rain = 0
KQU1 122308Z 08005G11KT 31/12 A2992 RMK A01 T03070118  RH  031%=      5-min Rain = 0
KQU1 122309Z 08011KT 31/12 A2992 RMK A01 T03060117  RH  031%=      5-min Rain = 0
KQU1 122310Z 08008KT 31/12 A2992 RMK A01 T03060116  RH  031%=      5-min Rain = 0
KQU1 122311Z 08009KT 31/12 A2992 RMK A01 T03060118  RH  032%=      5-min Rain = 0
KQU1 122312Z 07008KT 31/12 A2992 RMK A01 T03060117  RH  031%=      5-min Rain = 0
KQU1 122313Z 09009KT 31/12 A2992 RMK A01 T03060117  RH  031%=      5-min Rain = 0
KQU1 122314Z 08009KT 31/12 A2992 RMK A01 T03050117  RH  031%=      5-min Rain = 0
KQU1 122315Z 07008KT 31/12 A2992 RMK A01 T03050117  RH  031%=      5-min Rain = 0
KQU1 122316Z 06008KT 31/12 A2992 RMK A01 T03050116  RH  031%=      5-min Rain = 0
KQU1 122317Z 06006KT 30/12 A2992 RMK A01 T03040115  RH  031%=      5-min Rain = 0
KQU1 122318Z 06005KT 30/12 A2991 RMK A01 T03040118  RH  032%=      5-min Rain = 0
KQU1 122319Z 10008KT 31/12 A2992 RMK A01 T03050120  RH  032%=      5-min Rain = 0
KQU1 122320Z 09009KT 31/12 A2992 RMK A01 T03050119  RH  032%=      5-min Rain = 0
KQU1 122321Z 09010KT 30/12 A2992 RMK A01 T03040116  RH  031%=      5-min Rain = 0
KQU1 122322Z 09008KT 30/12 A2992 RMK A01 T03040115  RH  031%=      5-min Rain = 0
KQU1 122323Z 09009KT 30/12 A2992 RMK A01 T03030116  RH  032%=      5-min Rain = 0
KQU1 122324Z 10010KT 30/12 A2992 RMK A01 T03030115  RH  032%=      5-min Rain = 0
KQU1 122325Z 10007KT 30/12 A2991 RMK A01 T03020116  RH  032%=      5-min Rain = 0
KQU1 122326Z 10009KT 30/12 A2992 RMK A01 T03020116  RH  032%=      5-min Rain = 0
KQU1 122327Z 10008KT 30/12 A2992 RMK A01 T03010119  RH  032%=      5-min Rain = 0
KQU1 122328Z 10008KT 30/12 A2992 RMK A01 T03020118  RH  032%=      5-min Rain = 0
KQU1 122329Z 10009KT 30/12 A2992 RMK A01 T03010117  RH  032%=      5-min Rain = 0
KQU1 122330Z 10009KT 30/12 A2992 RMK A01 T03010115  RH  032%=      5-min Rain = 0
KQU1 122331Z 09009KT 30/11 A2992 RMK A01 T03000114  RH  032%=      5-min Rain = 0
KQU1 122332Z 09008KT 30/11 A2992 RMK A01 T03000113  RH  032%=      5-min Rain = 0
KQU1 122333Z 10009KT 30/11 A2992 RMK A01 T02990114  RH  032%=      5-min Rain = 0
KQU1 122334Z 11009KT 30/12 A2992 RMK A01 T02990116  RH  032%=      5-min Rain = 0
KQU1 122335Z 10009KT 30/11 A2992 RMK A01 T02990114  RH  032%=      5-min Rain = 0
KQU1 122336Z 11011KT 30/12 A2992 RMK A01 T02990115  RH  032%=      5-min Rain = 0
KQU1 122337Z 09010KT 30/11 A2992 RMK A01 T02980113  RH  032%=      5-min Rain = 0
KQU1 122338Z 09011KT 30/11 A2992 RMK A01 T02980113  RH  032%=      5-min Rain = 0
KQU1 122339Z 08010KT 30/11 A2992 RMK A01 T02970112  RH  032%=      5-min Rain = 0
KQU1 122340Z 08009KT 30/11 A2992 RMK A01 T02970113  RH  032%=      5-min Rain = 0
KQU1 122341Z 08007KT 30/11 A2992 RMK A01 T02970114  RH  032%=      5-min Rain = 0
KQU1 122342Z 08007KT 30/12 A2992 RMK A01 T02980115  RH  032%=      5-min Rain = 0
KQU1 122343Z 09009KT 30/11 A2992 RMK A01 T02980114  RH  032%=      5-min Rain = 0
KQU1 122344Z 09008KT 30/12 A2992 RMK A01 T02970115  RH  032%=      5-min Rain = 0
KQU1 122345Z 09009KT 30/11 A2992 RMK A01 T02970114  RH  032%=      5-min Rain = 0
KQU1 122346Z 09009KT 30/11 A2992 RMK A01 T02960113  RH  032%=      5-min Rain = 0
KQU1 122347Z 09008KT 30/11 A2992 RMK A01 T02960113  RH  032%=      5-min Rain = 0
KQU1 122348Z 09008KT 30/11 A2992 RMK A01 T02960113  RH  032%=      5-min Rain = 0
KQU1 122349Z 09007KT 30/11 A2992 RMK A01 T02960112  RH  032%=      5-min Rain = 0
KQU1 122350Z 09006KT 30/12 A2992 RMK A01 T02960115  RH  033%=      5-min Rain = 0
KQU1 122351Z 09006KT 30/12 A2992 RMK A01 T02960116  RH  033%=      5-min Rain = 0
KQU1 122352Z 09008KT 30/11 A2991 RMK A01 T02950114  RH  033%=      5-min Rain = 0
KQU1 122353Z 09007KT 30/11 A2991 RMK A01 T02950114  RH  033%=      5-min Rain = 0
KQU1 122354Z 08009KT 29/11 A2991 RMK A01 T02940112  RH  032%=      5-min Rain = 0
KQU1 122355Z 09008KT 29/11 A2991 RMK A01 T02940112  RH  032%=      5-min Rain = 0
KQU1 122356Z 09008KT 29/11 A2991 RMK A01 T02940112  RH  032%=      5-min Rain = 0
KQU1 122357Z 08008KT 29/11 A2991 RMK A01 T02940112  RH  032%=      5-min Rain = 0
KQU1 122358Z 08008KT 29/11 A2991 RMK A01 T02940111  RH  032%=      5-min Rain = 0
KQU1 122359Z 08007KT 29/11 A2991 RMK A01 T02930112  RH  032%=      5-min Rain = 0
KQU1 130000Z 10007KT 29/11 A2991 RMK A01 T02930114  RH  033%=      5-min Rain = 0
KQU1 130001Z 10009KT 29/11 A2991 RMK A01 T02930112  RH  033%=      5-min Rain = 0
KQU1 130002Z 10008KT 29/11 A2991 RMK A01 T02920113  RH  033%=      5-min Rain = 0
KQU1 130003Z 11008KT 29/11 A2991 RMK A01 T02910113  RH  033%=      5-min Rain = 0
KQU1 130004Z 10007KT 29/11 A2991 RMK A01 T02910114  RH  033%=      5-min Rain = 0
KQU1 130005Z 10008KT 29/11 A2991 RMK A01 T02900113  RH  033%=      5-min Rain = 0
KQU1 130006Z 09007KT 29/11 A2991 RMK A01 T02900112  RH  033%=      5-min Rain = 0
KQU1 130007Z 09009KT 29/11 A2991 RMK A01 T02890111  RH  033%=      5-min Rain = 0
KQU1 130008Z 08008KT 29/11 A2991 RMK A01 T02890111  RH  033%=      5-min Rain = 0
KQU1 130009Z 09007KT 29/11 A2991 RMK A01 T02890111  RH  033%=      5-min Rain = 0
KQU1 130010Z 09006KT 29/11 A2991 RMK A01 T02890112  RH  033%=      5-min Rain = 0
KQU1 130011Z 09007KT 29/11 A2991 RMK A01 T02890112  RH  033%=      5-min Rain = 0
KQU1 130012Z 09007KT 29/11 A2991 RMK A01 T02880111  RH  033%=      5-min Rain = 0
KQU1 130013Z 09006KT 29/11 A2991 RMK A01 T02880112  RH  034%=      5-min Rain = 0
KQU1 130014Z 09006KT 29/11 A2991 RMK A01 T02880112  RH  034%=      5-min Rain = 0
KQU1 130015Z 09006KT 29/11 A2991 RMK A01 T02870114  RH  034%=      5-min Rain = 0
KQU1 130016Z 10006KT 29/12 A2991 RMK A01 T02860115  RH  035%=      5-min Rain = 0
KQU1 130017Z 10007KT 29/12 A2991 RMK A01 T02860115  RH  035%=      5-min Rain = 0
KQU1 130018Z 10007KT 29/11 A2991 RMK A01 T02850113  RH  034%=      5-min Rain = 0
KQU1 130019Z 10006KT 28/11 A2991 RMK A01 T02840114  RH  035%=      5-min Rain = 0
KQU1 130020Z 09006KT 28/11 A2991 RMK A01 T02840114  RH  035%=      5-min Rain = 0
KQU1 130021Z 09006KT 28/11 A2991 RMK A01 T02830113  RH  035%=      5-min Rain = 0
KQU1 130022Z 08005KT 28/11 A2991 RMK A01 T02830113  RH  035%=      5-min Rain = 0
KQU1 130023Z 08006KT 28/11 A2991 RMK A01 T02830114  RH  035%=      5-min Rain = 0
KQU1 130024Z 09006KT 28/11 A2991 RMK A01 T02830114  RH  035%=      5-min Rain = 0
KQU1 130025Z 09006KT 28/11 A2991 RMK A01 T02830113  RH  035%=      5-min Rain = 0
KQU1 130026Z 09006KT 28/11 A2991 RMK A01 T02820113  RH  035%=      5-min Rain = 0
KQU1 130027Z 09006KT 28/11 A2991 RMK A01 T02820113  RH  035%=      5-min Rain = 0
KQU1 130028Z 09005KT 28/11 A2991 RMK A01 T02810112  RH  035%=      5-min Rain = 0
KQU1 130029Z 08006KT 28/11 A2991 RMK A01 T02800113  RH  035%=      5-min Rain = 0
KQU1 130030Z 09006KT 28/11 A2991 RMK A01 T02800112  RH  035%=      5-min Rain = 0
KQU1 130031Z 09006KT 28/11 A2991 RMK A01 T02800112  RH  035%=      5-min Rain = 0
KQU1 130032Z 08005KT 28/11 A2991 RMK A01 T02790112  RH  035%=      5-min Rain = 0
KQU1 130033Z 09006KT 28/11 A2991 RMK A01 T02790113  RH  036%=      5-min Rain = 0
KQU1 130034Z 09005KT 28/11 A2991 RMK A01 T02780113  RH  036%=      5-min Rain = 0
KQU1 130035Z 09006KT 28/11 A2991 RMK A01 T02770114  RH  036%=      5-min Rain = 0
KQU1 130036Z 09006KT 28/11 A2991 RMK A01 T02760114  RH  036%=      5-min Rain = 0
KQU1 130037Z 09006KT 28/11 A2991 RMK A01 T02750114  RH  037%=      5-min Rain = 0
KQU1 130038Z 09005KT 27/12 A2991 RMK A01 T02740115  RH  037%=      5-min Rain = 0
KQU1 130039Z 09005KT 27/12 A2991 RMK A01 T02730115  RH  037%=      5-min Rain = 0
KQU1 130040Z 09005KT 27/12 A2991 RMK A01 T02730116  RH  038%=      5-min Rain = 0
KQU1 130041Z 09005KT 27/12 A2991 RMK A01 T02720116  RH  038%=      5-min Rain = 0
KQU1 130042Z 09005KT 27/12 A2991 RMK A01 T02710117  RH  038%=      5-min Rain = 0
KQU1 130043Z 09004KT 27/12 A2991 RMK A01 T02700117  RH  039%=      5-min Rain = 0
KQU1 130044Z 09004KT 27/12 A2991 RMK A01 T02690117  RH  039%=      5-min Rain = 0
KQU1 130045Z 09004KT 27/12 A2991 RMK A01 T02680117  RH  039%=      5-min Rain = 0
KQU1 130046Z 09004KT 27/12 A2991 RMK A01 T02670117  RH  039%=      5-min Rain = 0
KQU1 130047Z 09004KT 27/12 A2991 RMK A01 T02660117  RH  040%=      5-min Rain = 0
KQU1 130048Z 08003KT 27/12 A2991 RMK A01 T02660118  RH  040%=      5-min Rain = 0
KQU1 130049Z 09004KT 27/12 A2991 RMK A01 T02650118  RH  040%=      5-min Rain = 0
KQU1 130050Z 09004KT 27/12 A2991 RMK A01 T02650117  RH  040%=      5-min Rain = 0
KQU1 130051Z 09003KT 26/12 A2991 RMK A01 T02640117  RH  040%=      5-min Rain = 0
KQU1 130052Z 09004KT 26/12 A2991 RMK A01 T02640117  RH  040%=      5-min Rain = 0
KQU1 130053Z 09004KT 26/12 A2991 RMK A01 T02630117  RH  040%=      5-min Rain = 0
KQU1 130054Z 09004KT 26/12 A2991 RMK A01 T02630117  RH  040%=      5-min Rain = 0
KQU1 130055Z 09004KT 26/12 A2991 RMK A01 T02620118  RH  041%=      5-min Rain = 0
KQU1 130056Z 10004KT 26/12 A2991 RMK A01 T02610118  RH  041%=      5-min Rain = 0
KQU1 130057Z 10004KT 26/12 A2991 RMK A01 T02600118  RH  041%=      5-min Rain = 0
KQU1 130058Z 10003KT 26/12 A2991 RMK A01 T02600118  RH  041%=      5-min Rain = 0
KQU1 130059Z 10003KT 26/12 A2991 RMK A01 T02590118  RH  041%=      5-min Rain = 0
KQU1 130100Z 10003KT 26/12 A2991 RMK A01 T02580118  RH  042%=      5-min Rain = 0
KQU1 130101Z 10003KT 26/12 A2991 RMK A01 T02580118  RH  042%=      5-min Rain = 0
KQU1 130102Z 10003KT 26/12 A2991 RMK A01 T02570118  RH  042%=      5-min Rain = 0
KQU1 130103Z 10003KT 26/12 A2991 RMK A01 T02560117  RH  042%=      5-min Rain = 0
KQU1 130104Z 10003KT 26/12 A2991 RMK A01 T02560117  RH  042%=      5-min Rain = 0
KQU1 130105Z 10003KT 26/12 A2991 RMK A01 T02550118  RH  042%=      5-min Rain = 0
KQU1 130106Z 10003KT 26/12 A2991 RMK A01 T02550118  RH  042%=      5-min Rain = 0
KQU1 130107Z 10003KT 25/12 A2991 RMK A01 T02540117  RH  042%=      5-min Rain = 0
KQU1 130108Z 10003KT 25/12 A2991 RMK A01 T02540118  RH  043%=      5-min Rain = 0
KQU1 130109Z 10003KT 25/12 A2991 RMK A01 T02530118  RH  043%=      5-min Rain = 0
KQU1 130110Z 10002KT 25/12 A2991 RMK A01 T02530119  RH  043%=      5-min Rain = 0
KQU1 130111Z 10002KT 25/12 A2991 RMK A01 T02510119  RH  044%=      5-min Rain = 0
KQU1 130112Z 11002KT 25/12 A2991 RMK A01 T02510119  RH  044%=      5-min Rain = 0
KQU1 130113Z 11002KT 25/12 A2991 RMK A01 T02510118  RH  044%=      5-min Rain = 0
KQU1 130114Z 11002KT 25/12 A2991 RMK A01 T02510118  RH  044%=      5-min Rain = 0
KQU1 130115Z 11002KT 25/12 A2991 RMK A01 T02510118  RH  043%=      5-min Rain = 0
KQU1 130116Z 11002KT 25/12 A2991 RMK A01 T02510118  RH  043%=      5-min Rain = 0
KQU1 130117Z 11002KT 25/12 A2991 RMK A01 T02510118  RH  043%=      5-min Rain = 0
KQU1 130118Z 11002KT 25/12 A2991 RMK A01 T02510117  RH  043%=      5-min Rain = 0
KQU1 130119Z 10002KT 25/12 A2991 RMK A01 T02510117  RH  043%=      5-min Rain = 0
KQU1 130120Z 09002KT 25/12 A2991 RMK A01 T02510117  RH  043%=      5-min Rain = 0
KQU1 130121Z 08003KT 25/12 A2991 RMK A01 T02500117  RH  043%=      5-min Rain = 0
KQU1 130122Z 09002KT 25/12 A2991 RMK A01 T02500117  RH  043%=      5-min Rain = 0
KQU1 130123Z 08003KT 25/12 A2991 RMK A01 T02500118  RH  044%=      5-min Rain = 0
KQU1 130124Z 08002KT 25/12 A2991 RMK A01 T02490120  RH  044%=      5-min Rain = 0
KQU1 130125Z 08003KT 25/12 A2991 RMK A01 T02480121  RH  045%=      5-min Rain = 0
KQU1 130126Z 08003KT 25/12 A2991 RMK A01 T02460122  RH  046%=      5-min Rain = 0
KQU1 130127Z 09003KT 24/13 A2991 RMK A01 T02440127  RH  048%=      5-min Rain = 0
KQU1 130128Z 09002KT 24/13 A2991 RMK A01 T02430131  RH  050%=      5-min Rain = 0
KQU1 130129Z 09002KT 24/14 A2991 RMK A01 T02420135  RH  051%=      5-min Rain = 0
KQU1 130130Z 10003KT 24/14 A2992 RMK A01 T02410135  RH  052%=      5-min Rain = 0
KQU1 130131Z 10003KT 24/13 A2992 RMK A01 T02410134  RH  051%=      5-min Rain = 0
KQU1 130132Z 10003KT 24/13 A2992 RMK A01 T02410131  RH  050%=      5-min Rain = 0
KQU1 130133Z 10003KT 24/13 A2992 RMK A01 T02400129  RH  050%=      5-min Rain = 0
KQU1 130134Z 09003KT 24/13 A2992 RMK A01 T02400127  RH  049%=      5-min Rain = 0
KQU1 130135Z 09003KT 24/13 A2992 RMK A01 T02400126  RH  049%=      5-min Rain = 0
KQU1 130136Z 09004KT 24/13 A2992 RMK A01 T02410125  RH  048%=      5-min Rain = 0
KQU1 130137Z 09004KT 24/12 A2992 RMK A01 T02410124  RH  048%=      5-min Rain = 0
KQU1 130138Z 09004KT 24/12 A2992 RMK A01 T02420121  RH  047%=      5-min Rain = 0
KQU1 130139Z 09005KT 24/12 A2992 RMK A01 T02430121  RH  046%=      5-min Rain = 0
KQU1 130140Z 09005KT 24/12 A2992 RMK A01 T02440120  RH  046%=      5-min Rain = 0
KQU1 130141Z 09004KT 25/12 A2992 RMK A01 T02450120  RH  045%=      5-min Rain = 0
KQU1 130142Z 09005KT 25/12 A2992 RMK A01 T02450119  RH  045%=      5-min Rain = 0
KQU1 130143Z 09005KT 25/12 A2992 RMK A01 T02450119  RH  045%=      5-min Rain = 0
KQU1 130144Z 09006KT 24/12 A2992 RMK A01 T02440118  RH  045%=      5-min Rain = 0
KQU1 130145Z 09007KT 24/12 A2992 RMK A01 T02440117  RH  045%=      5-min Rain = 0
KQU1 130146Z 09006KT 25/12 A2992 RMK A01 T02450117  RH  045%=      5-min Rain = 0
KQU1 130147Z 09006KT 25/12 A2992 RMK A01 T02450116  RH  044%=      5-min Rain = 0
KQU1 130148Z 09005KT 25/12 A2992 RMK A01 T02450117  RH  045%=      5-min Rain = 0
KQU1 130149Z 09005KT 25/12 A2992 RMK A01 T02450117  RH  045%=      5-min Rain = 0
KQU1 130150Z 09005KT 25/12 A2992 RMK A01 T02450117  RH  045%=      5-min Rain = 0
KQU1 130151Z 09005KT 24/12 A2992 RMK A01 T02440117  RH  045%=      5-min Rain = 0
KQU1 130152Z 09005KT 24/12 A2992 RMK A01 T02440117  RH  045%=      5-min Rain = 0
KQU1 130153Z 09004KT 24/12 A2993 RMK A01 T02430117  RH  045%=      5-min Rain = 0
KQU1 130154Z 10004KT 24/12 A2993 RMK A01 T02420117  RH  045%=      5-min Rain = 0
KQU1 130155Z 10004KT 24/12 A2993 RMK A01 T02420117  RH  046%=      5-min Rain = 0
KQU1 130156Z 10004KT 24/12 A2993 RMK A01 T02410117  RH  046%=      5-min Rain = 0
KQU1 130157Z 10004KT 24/12 A2993 RMK A01 T02400117  RH  046%=      5-min Rain = 0
KQU1 130158Z 10004KT 24/12 A2993 RMK A01 T02400118  RH  046%=      5-min Rain = 0
KQU1 130159Z 10004KT 24/12 A2993 RMK A01 T02390117  RH  046%=      5-min Rain = 0
KQU1 130200Z 10003KT 24/12 A2993 RMK A01 T02380117  RH  046%=      5-min Rain = 0
KQU1 130201Z 10003KT 24/12 A2993 RMK A01 T02380117  RH  047%=      5-min Rain = 0
KQU1 130202Z 10003KT 24/12 A2993 RMK A01 T02370117  RH  047%=      5-min Rain = 0
KQU1 130203Z 10003KT 24/12 A2993 RMK A01 T02370116  RH  047%=      5-min Rain = 0
KQU1 130204Z 10003KT 24/12 A2993 RMK A01 T02370116  RH  047%=      5-min Rain = 0
KQU1 130205Z 10004KT 24/12 A2993 RMK A01 T02370116  RH  047%=      5-min Rain = 0
KQU1 130206Z 11004KT 24/12 A2993 RMK A01 T02370116  RH  046%=      5-min Rain = 0
KQU1 130207Z 11004KT 24/12 A2993 RMK A01 T02370116  RH  047%=      5-min Rain = 0
KQU1 130208Z 11004KT 24/12 A2993 RMK A01 T02370116  RH  047%=      5-min Rain = 0
KQU1 130209Z 11004KT 24/12 A2993 RMK A01 T02370116  RH  047%=      5-min Rain = 0
KQU1 130210Z 11005KT 24/12 A2993 RMK A01 T02360116  RH  047%=      5-min Rain = 0
KQU1 130211Z 11005KT 24/12 A2993 RMK A01 T02360116  RH  047%=      5-min Rain = 0
KQU1 130212Z 11004KT 24/12 A2993 RMK A01 T02360116  RH  047%=      5-min Rain = 0
KQU1 130213Z 11005KT 24/12 A2993 RMK A01 T02350116  RH  047%=      5-min Rain = 0
KQU1 130214Z 10005KT 24/12 A2993 RMK A01 T02350116  RH  047%=      5-min Rain = 0
KQU1 130215Z 10004KT 24/12 A2993 RMK A01 T02350116  RH  047%=      5-min Rain = 0
KQU1 130216Z 10004KT 23/12 A2993 RMK A01 T02340115  RH  047%=      5-min Rain = 0
KQU1 130217Z 10004KT 23/12 A2993 RMK A01 T02340115  RH  047%=      5-min Rain = 0
KQU1 130218Z 10004KT 24/12 A2993 RMK A01 T02350115  RH  047%=      5-min Rain = 0
KQU1 130219Z 10004KT 24/12 A2993 RMK A01 T02350115  RH  047%=      5-min Rain = 0
KQU1 130220Z 10003KT 24/12 A2993 RMK A01 T02350115  RH  047%=      5-min Rain = 0
KQU1 130221Z 10003KT 23/12 A2993 RMK A01 T02340115  RH  047%=      5-min Rain = 0
KQU1 130222Z 11003KT 23/12 A2993 RMK A01 T02340115  RH  047%=      5-min Rain = 0
KQU1 130223Z 12003KT 23/12 A2993 RMK A01 T02340116  RH  047%=      5-min Rain = 0
KQU1 130224Z 13002KT 23/12 A2993 RMK A01 T02320117  RH  048%=      5-min Rain = 0
KQU1 130225Z 14001KT 23/12 A2993 RMK A01 T02300117  RH  049%=      5-min Rain = 0
KQU1 130226Z 14002KT 23/12 A2994 RMK A01 T02280117  RH  049%=      5-min Rain = 0
KQU1 130227Z 13001KT 23/12 A2994 RMK A01 T02280117  RH  049%=      5-min Rain = 0
KQU1 130228Z 13001KT 23/12 A2994 RMK A01 T02280117  RH  049%=      5-min Rain = 0
KQU1 130229Z 13001KT 23/12 A2993 RMK A01 T02280117  RH  049%=      5-min Rain = 0
KQU1 130230Z 13001KT 23/12 A2993 RMK A01 T02290117  RH  049%=      5-min Rain = 0
KQU1 130231Z 14001KT 23/12 A2994 RMK A01 T02290118  RH  050%=      5-min Rain = 0
KQU1 130232Z 15000KT 23/12 A2994 RMK A01 T02280117  RH  049%=      5-min Rain = 0
KQU1 130233Z 16001KT 23/12 A2994 RMK A01 T02290117  RH  049%=      5-min Rain = 0
KQU1 130234Z 16001KT 23/12 A2994 RMK A01 T02290117  RH  049%=      5-min Rain = 0
KQU1 130235Z 15002KT 23/12 A2994 RMK A01 T02290117  RH  049%=      5-min Rain = 0
KQU1 130236Z 16001KT 23/12 A2994 RMK A01 T02300117  RH  049%=      5-min Rain = 0
KQU1 130237Z 15002KT 23/12 A2994 RMK A01 T02300117  RH  049%=      5-min Rain = 0
KQU1 130238Z 16002KT 23/12 A2994 RMK A01 T02290117  RH  049%=      5-min Rain = 0
KQU1 130239Z 15002KT 23/12 A2994 RMK A01 T02290117  RH  049%=      5-min Rain = 0
KQU1 130240Z 16001KT 23/12 A2994 RMK A01 T02290117  RH  049%=      5-min Rain = 0
KQU1 130241Z 15001KT 23/12 A2994 RMK A01 T02280118  RH  050%=      5-min Rain = 0
KQU1 130242Z 16002KT 23/12 A2994 RMK A01 T02270118  RH  050%=      5-min Rain = 0
KQU1 130243Z 18001KT 23/12 A2994 RMK A01 T02260119  RH  051%=      5-min Rain = 0
KQU1 130244Z 18002KT 23/12 A2993 RMK A01 T02250120  RH  051%=      5-min Rain = 0
KQU1 130245Z 18002KT 22/12 A2993 RMK A01 T02220120  RH  053%=      5-min Rain = 0
KQU1 130246Z 19002KT 22/12 A2994 RMK A01 T02190120  RH  053%=      5-min Rain = 0
KQU1 130247Z 20001KT 22/12 A2994 RMK A01 T02180120  RH  054%=      5-min Rain = 0
KQU1 130248Z 20002KT 22/12 A2994 RMK A01 T02170120  RH  054%=      5-min Rain = 0
KQU1 130249Z 19001KT 22/12 A2994 RMK A01 T02170120  RH  054%=      5-min Rain = 0
KQU1 130250Z 20002KT 22/12 A2994 RMK A01 T02160120  RH  055%=      5-min Rain = 0
KQU1 130251Z 21001KT 22/12 A2994 RMK A01 T02150120  RH  055%=      5-min Rain = 0
KQU1 130252Z 21001KT 21/12 A2994 RMK A01 T02140121  RH  055%=      5-min Rain = 0
KQU1 130253Z 19001KT 21/12 A2994 RMK A01 T02130121  RH  056%=      5-min Rain = 0
KQU1 130254Z 19001KT 21/12 A2994 RMK A01 T02130121  RH  056%=      5-min Rain = 0
KQU1 130255Z 18001KT 21/12 A2994 RMK A01 T02130121  RH  056%=      5-min Rain = 0
KQU1 130256Z 20001KT 21/12 A2994 RMK A01 T02130121  RH  056%=      5-min Rain = 0
KQU1 130257Z 19002KT 21/12 A2994 RMK A01 T02130121  RH  056%=      5-min Rain = 0
KQU1 130258Z 18002KT 21/12 A2994 RMK A01 T02130121  RH  056%=      5-min Rain = 0
KQU1 130259Z 16002KT 21/12 A2994 RMK A01 T02130121  RH  056%=      5-min Rain = 0
KQU1 130300Z 18002KT 21/12 A2994 RMK A01 T02140121  RH  055%=      5-min Rain = 0
KQU1 130301Z 18002KT 22/12 A2994 RMK A01 T02160121  RH  055%=      5-min Rain = 0
KQU1 130302Z 18002KT 22/12 A2994 RMK A01 T02160122  RH  055%=      5-min Rain = 0
KQU1 130303Z 18002KT 22/12 A2994 RMK A01 T02150122  RH  055%=      5-min Rain = 0
KQU1 130304Z 18002KT 22/12 A2994 RMK A01 T02150122  RH  055%=      5-min Rain = 0
KQU1 130305Z 17002KT 22/12 A2994 RMK A01 T02150121  RH  055%=      5-min Rain = 0
KQU1 130306Z 17001KT 22/12 A2994 RMK A01 T02150122  RH  055%=      5-min Rain = 0
KQU1 130307Z 16001KT 22/12 A2994 RMK A01 T02150121  RH  055%=      5-min Rain = 0
KQU1 130308Z 16002KT 22/12 A2994 RMK A01 T02150121  RH  055%=      5-min Rain = 0
KQU1 130309Z 17002KT 22/12 A2994 RMK A01 T02160120  RH  054%=      5-min Rain = 0
KQU1 130310Z 17002KT 22/12 A2994 RMK A01 T02180120  RH  054%=      5-min Rain = 0
KQU1 130311Z 16003KT 22/12 A2994 RMK A01 T02190120  RH  053%=      5-min Rain = 0
KQU1 130312Z 17003KT 22/12 A2994 RMK A01 T02200120  RH  053%=      5-min Rain = 0
KQU1 130313Z 17003KT 22/12 A2994 RMK A01 T02200120  RH  053%=      5-min Rain = 0
KQU1 130314Z 18003KT 22/12 A2994 RMK A01 T02200119  RH  053%=      5-min Rain = 0
KQU1 130315Z 17004KT 22/12 A2994 RMK A01 T02200119  RH  053%=      5-min Rain = 0
KQU1 130316Z 17003KT 22/12 A2994 RMK A01 T02200119  RH  053%=      5-min Rain = 0
KQU1 130317Z 17003KT 22/12 A2994 RMK A01 T02200119  RH  053%=      5-min Rain = 0
KQU1 130318Z 16003KT 22/12 A2994 RMK A01 T02210118  RH  052%=      5-min Rain = 0
KQU1 130319Z 17003KT 22/12 A2994 RMK A01 T02210118  RH  052%=      5-min Rain = 0
KQU1 130320Z 17004KT 22/12 A2994 RMK A01 T02220118  RH  052%=      5-min Rain = 0
KQU1 130321Z 18005KT 22/12 A2994 RMK A01 T02210119  RH  052%=      5-min Rain = 0
KQU1 130322Z 19005KT 22/12 A2994 RMK A01 T02200119  RH  053%=      5-min Rain = 0
KQU1 130323Z 19005KT 22/12 A2994 RMK A01 T02190119  RH  053%=      5-min Rain = 0
KQU1 130324Z 19005KT 22/12 A2994 RMK A01 T02170120  RH  054%=      5-min Rain = 0
KQU1 130325Z 18005KT 22/12 A2994 RMK A01 T02150120  RH  055%=      5-min Rain = 0
KQU1 130326Z 18004KT 21/12 A2994 RMK A01 T02140120  RH  055%=      5-min Rain = 0
KQU1 130327Z 18004KT 21/12 A2994 RMK A01 T02130121  RH  055%=      5-min Rain = 0
KQU1 130328Z 19005KT 21/12 A2994 RMK A01 T02130121  RH  056%=      5-min Rain = 0
KQU1 130329Z 20005KT 21/12 A2994 RMK A01 T02120121  RH  056%=      5-min Rain = 0
KQU1 130330Z 21005KT 21/12 A2994 RMK A01 T02120121  RH  056%=      5-min Rain = 0
KQU1 130331Z 20006KT 21/12 A2994 RMK A01 T02110122  RH  057%=      5-min Rain = 0
KQU1 130332Z 21005KT 21/12 A2994 RMK A01 T02110121  RH  057%=      5-min Rain = 0
KQU1 130333Z 20005KT 21/12 A2994 RMK A01 T02110121  RH  056%=      5-min Rain = 0
KQU1 130334Z 20005KT 21/12 A2994 RMK A01 T02110121  RH  056%=      5-min Rain = 0
KQU1 130335Z 20005KT 21/12 A2994 RMK A01 T02120121  RH  056%=      5-min Rain = 0
KQU1 130336Z 20005KT 21/12 A2994 RMK A01 T02120121  RH  056%=      5-min Rain = 0
KQU1 130337Z 20004KT 21/12 A2994 RMK A01 T02120120  RH  056%=      5-min Rain = 0
KQU1 130338Z 19004KT 21/12 A2994 RMK A01 T02120120  RH  056%=      5-min Rain = 0
KQU1 130339Z 19004KT 21/12 A2994 RMK A01 T02120120  RH  056%=      5-min Rain = 0
KQU1 130340Z 18003KT 21/12 A2994 RMK A01 T02110119  RH  056%=      5-min Rain = 0
KQU1 130341Z 18004KT 21/12 A2994 RMK A01 T02120119  RH  055%=      5-min Rain = 0
KQU1 130342Z 17004KT 21/12 A2994 RMK A01 T02130118  RH  054%=      5-min Rain = 0
KQU1 130343Z 17005KT 21/12 A2994 RMK A01 T02140117  RH  054%=      5-min Rain = 0
KQU1 130344Z 17005KT 22/12 A2994 RMK A01 T02160116  RH  053%=      5-min Rain = 0
KQU1 130345Z 17005KT 22/12 A2994 RMK A01 T02160115  RH  052%=      5-min Rain = 0
KQU1 130346Z 17005KT 22/11 A2994 RMK A01 T02170114  RH  052%=      5-min Rain = 0
KQU1 130347Z 17005KT 22/11 A2994 RMK A01 T02170114  RH  052%=      5-min Rain = 0
KQU1 130348Z 18005KT 22/11 A2994 RMK A01 T02170114  RH  052%=      5-min Rain = 0
KQU1 130349Z 18004KT 22/11 A2994 RMK A01 T02170114  RH  052%=      5-min Rain = 0
KQU1 130350Z 19003KT 22/12 A2994 RMK A01 T02160115  RH  053%=      5-min Rain = 0
KQU1 130351Z 19003KT 21/12 A2994 RMK A01 T02140115  RH  053%=      5-min Rain = 0
KQU1 130352Z 20002KT 21/12 A2994 RMK A01 T02130115  RH  054%=      5-min Rain = 0
KQU1 130353Z 19002KT 21/12 A2994 RMK A01 T02120115  RH  054%=      5-min Rain = 0
KQU1 130354Z 20002KT 21/11 A2994 RMK A01 T02120114  RH  053%=      5-min Rain = 0
KQU1 130355Z 20002KT 21/12 A2994 RMK A01 T02130115  RH  053%=      5-min Rain = 0
KQU1 130356Z 20003KT 21/12 A2994 RMK A01 T02130115  RH  053%=      5-min Rain = 0
KQU1 130357Z 20003KT 21/11 A2994 RMK A01 T02130114  RH  053%=      5-min Rain = 0
KQU1 130358Z 19004KT 21/11 A2994 RMK A01 T02130114  RH  053%=      5-min Rain = 0
KQU1 130359Z 20004KT 21/12 A2994 RMK A01 T02130115  RH  053%=      5-min Rain = 0
KQU1 130400Z 20004KT 21/12 A2994 RMK A01 T02110115  RH  054%=      5-min Rain = 0
KQU1 130401Z 19004KT 21/12 A2994 RMK A01 T02090115  RH  055%=      5-min Rain = 0
KQU1 130402Z 17004KT 21/12 A2994 RMK A01 T02080115  RH  055%=      5-min Rain = 0
KQU1 130403Z 16004KT 21/12 A2994 RMK A01 T02070115  RH  055%=      5-min Rain = 0
KQU1 130404Z 16005KT 21/12 A2994 RMK A01 T02070115  RH  056%=      5-min Rain = 0
KQU1 130405Z 16004KT 21/11 A2994 RMK A01 T02070114  RH  055%=      5-min Rain = 0
KQU1 130406Z 16005KT 21/11 A2994 RMK A01 T02080113  RH  055%=      5-min Rain = 0
KQU1 130407Z 16004KT 21/11 A2994 RMK A01 T02090113  RH  054%=      5-min Rain = 0
KQU1 130408Z 15005KT 21/11 A2994 RMK A01 T02100112  RH  054%=      5-min Rain = 0
KQU1 130409Z 15004KT 21/11 A2994 RMK A01 T02110112  RH  053%=      5-min Rain = 0
KQU1 130410Z 15005KT 21/11 A2994 RMK A01 T02120112  RH  053%=      5-min Rain = 0
KQU1 130411Z 15005KT 21/11 A2994 RMK A01 T02120112  RH  053%=      5-min Rain = 0
KQU1 130412Z 15005KT 21/11 A2994 RMK A01 T02120112  RH  053%=      5-min Rain = 0
KQU1 130413Z 16005KT 21/11 A2994 RMK A01 T02110112  RH  053%=      5-min Rain = 0
KQU1 130414Z 17004KT 21/11 A2994 RMK A01 T02100113  RH  054%=      5-min Rain = 0
KQU1 130415Z 17004KT 21/11 A2994 RMK A01 T02100112  RH  054%=      5-min Rain = 0
KQU1 130416Z 16004KT 21/11 A2994 RMK A01 T02100112  RH  053%=      5-min Rain = 0
KQU1 130417Z 16004KT 21/11 A2994 RMK A01 T02100112  RH  053%=      5-min Rain = 0
KQU1 130418Z 16004KT 21/11 A2994 RMK A01 T02100112  RH  054%=      5-min Rain = 0
KQU1 130419Z 16004KT 21/11 A2994 RMK A01 T02090112  RH  054%=      5-min Rain = 0
KQU1 130420Z 17004KT 21/11 A2994 RMK A01 T02090112  RH  054%=      5-min Rain = 0
KQU1 130421Z 17004KT 21/11 A2994 RMK A01 T02090112  RH  054%=      5-min Rain = 0
KQU1 130422Z 17004KT 21/11 A2994 RMK A01 T02080112  RH  054%=      5-min Rain = 0
KQU1 130423Z 17004KT 21/11 A2994 RMK A01 T02070112  RH  054%=      5-min Rain = 0
KQU1 130424Z 17005KT 21/11 A2994 RMK A01 T02070112  RH  054%=      5-min Rain = 0
KQU1 130425Z 17004KT 21/11 A2994 RMK A01 T02070112  RH  055%=      5-min Rain = 0
KQU1 130426Z 17003KT 21/11 A2994 RMK A01 T02070113  RH  055%=      5-min Rain = 0
KQU1 130427Z 17004KT 21/11 A2994 RMK A01 T02060113  RH  055%=      5-min Rain = 0
KQU1 130428Z 19004KT 21/11 A2994 RMK A01 T02060114  RH  055%=      5-min Rain = 0
KQU1 130429Z 19005KT 21/11 A2994 RMK A01 T02050114  RH  056%=      5-min Rain = 0
KQU1 130430Z 19006KT 20/11 A2994 RMK A01 T02040114  RH  056%=      5-min Rain = 0
KQU1 130431Z 20006KT 20/12 A2994 RMK A01 T02030115  RH  057%=      5-min Rain = 0
KQU1 130432Z 20006KT 20/12 A2994 RMK A01 T02010116  RH  058%=      5-min Rain = 0
KQU1 130433Z 20007KT 20/12 A2994 RMK A01 T02000116  RH  058%=      5-min Rain = 0
KQU1 130434Z 19006KT 20/12 A2994 RMK A01 T02000116  RH  058%=      5-min Rain = 0
KQU1 130435Z 20006KT 20/12 A2994 RMK A01 T02010116  RH  058%=      5-min Rain = 0
KQU1 130436Z 20006KT 20/12 A2994 RMK A01 T02020116  RH  058%=      5-min Rain = 0
KQU1 130437Z 19006KT 20/12 A2994 RMK A01 T02030116  RH  057%=      5-min Rain = 0
KQU1 130438Z 18006KT 21/12 A2994 RMK A01 T02050115  RH  056%=      5-min Rain = 0
KQU1 130439Z 17006KT 21/11 A2994 RMK A01 T02070114  RH  055%=      5-min Rain = 0
KQU1 130440Z 18005KT 21/11 A2994 RMK A01 T02090114  RH  055%=      5-min Rain = 0
KQU1 130441Z 18006KT 21/11 A2994 RMK A01 T02090114  RH  054%=      5-min Rain = 0
KQU1 130442Z 20006KT 21/11 A2994 RMK A01 T02090114  RH  054%=      5-min Rain = 0
KQU1 130443Z 20007KT 21/11 A2994 RMK A01 T02080114  RH  055%=      5-min Rain = 0
KQU1 130444Z 20008KT 21/11 A2994 RMK A01 T02070114  RH  055%=      5-min Rain = 0
KQU1 130445Z 20007KT 21/12 A2994 RMK A01 T02060115  RH  056%=      5-min Rain = 0
KQU1 130446Z 20007KT 21/12 A2995 RMK A01 T02050115  RH  056%=      5-min Rain = 0
KQU1 130447Z 20006KT 20/12 A2995 RMK A01 T02040115  RH  057%=      5-min Rain = 0
KQU1 130448Z 20006KT 20/12 A2995 RMK A01 T02030115  RH  057%=      5-min Rain = 0
KQU1 130449Z 20006KT 20/12 A2995 RMK A01 T02020116  RH  058%=      5-min Rain = 0
KQU1 130450Z 20006KT 20/12 A2995 RMK A01 T02010116  RH  058%=      5-min Rain = 0
KQU1 130451Z 21006KT 20/12 A2995 RMK A01 T02000116  RH  058%=      5-min Rain = 0
KQU1 130452Z 20007KT 20/12 A2995 RMK A01 T01990116  RH  059%=      5-min Rain = 0
KQU1 130453Z 21007KT 20/12 A2995 RMK A01 T01980116  RH  059%=      5-min Rain = 0
KQU1 130454Z 20007KT 20/12 A2995 RMK A01 T01980116  RH  059%=      5-min Rain = 0
KQU1 130455Z 20007KT 20/12 A2995 RMK A01 T01980116  RH  059%=      5-min Rain = 0
KQU1 130456Z 21007KT 20/12 A2995 RMK A01 T01980116  RH  059%=      5-min Rain = 0
KQU1 130457Z 20007KT 20/12 A2995 RMK A01 T01990115  RH  059%=      5-min Rain = 0
KQU1 130458Z 21006KT 20/12 A2995 RMK A01 T01990115  RH  058%=      5-min Rain = 0
KQU1 130459Z 20006KT 20/12 A2995 RMK A01 T02000115  RH  058%=      5-min Rain = 0

Page generated in 0.1214 seconds.